Wetterdaten: Sonntag, 04.04.2021
Datum Zeit Temp. Aussen Temp. o. S. Temp +5cm Feuchte Auss Luftdruck Regen Sonnenschein Regendauer Solar Windben Empfang
04.04.2021 00:00 5,5 C 4,4 C 2,3 C 78 % 1027,8 hPa 0,0 l/m 0 min 0 min 0 W/m 19,3 km/h (3 Bft) 97,14 %
04.04.2021 00:02 5,5 C 4,4 C 2,3 C 78 % 1027,8 hPa 0,0 l/m 0 min 0 min 0 W/m 6,4 km/h (2 Bft) 11,11 %
04.04.2021 00:04 5,4 C 4,4 C 2,3 C 78 % 1027,8 hPa 0,0 l/m 0 min 0 min 0 W/m 12,9 km/h (3 Bft) 86,49 %
04.04.2021 00:08 5,4 C 4,4 C 2,3 C 79 % 1027,8 hPa 0,0 l/m 0 min 0 min 0 W/m 16,1 km/h (3 Bft) 96,84 %
04.04.2021 00:10 5,4 C 4,4 C 2,3 C 79 % 1027,8 hPa 0,0 l/m 0 min 0 min 0 W/m 12,9 km/h (3 Bft) 97,87 %
04.04.2021 00:12 5,3 C 4,4 C 2,3 C 79 % 1027,8 hPa 0,0 l/m 0 min 0 min 0 W/m 6,4 km/h (2 Bft) 97,87 %
04.04.2021 00:14 5,3 C 4,4 C 2,3 C 79 % 1027,7 hPa 0,0 l/m 0 min 0 min 0 W/m 9,7 km/h (2 Bft) 95,65 %
04.04.2021 00:16 5,3 C 4,4 C 2,3 C 79 % 1027,8 hPa 0,0 l/m 0 min 0 min 0 W/m 9,7 km/h (2 Bft) 95,74 %
04.04.2021 00:18 5,2 C 4,4 C 2,3 C 79 % 1027,7 hPa 0,0 l/m 0 min 0 min 0 W/m 12,9 km/h (3 Bft) 95,74 %
04.04.2021 00:20 5,1 C 4,4 C 2,3 C 79 % 1027,8 hPa 0,0 l/m 0 min 0 min 0 W/m 6,4 km/h (2 Bft) 95,74 %
04.04.2021 00:22 5,1 C 4,4 C 2,3 C 79 % 1027,9 hPa 0,0 l/m 0 min 0 min 0 W/m 12,9 km/h (3 Bft) 95,74 %
04.04.2021 00:24 5,1 C 4,4 C 2,3 C 79 % 1027,9 hPa 0,0 l/m 0 min 0 min 0 W/m 6,4 km/h (2 Bft) 95,74 %
04.04.2021 00:26 5,1 C 4,4 C 2,3 C 79 % 1027,8 hPa 0,0 l/m 0 min 0 min 0 W/m 9,7 km/h (2 Bft) 93,48 %
04.04.2021 00:28 5,1 C 4,4 C 2,3 C 79 % 1027,8 hPa 0,0 l/m 0 min 0 min 0 W/m 12,9 km/h (3 Bft) 95,74 %
04.04.2021 00:30 5,0 C 4,4 C 1,7 C 79 % 1027,8 hPa 0,0 l/m 0 min 0 min 0 W/m 12,9 km/h (3 Bft) 95,74 %
04.04.2021 00:32 5,0 C 4,4 C 1,7 C 79 % 1027,8 hPa 0,0 l/m 0 min 0 min 0 W/m 9,7 km/h (2 Bft) 91,49 %
04.04.2021 00:34 5,0 C 3,9 C 1,7 C 79 % 1027,8 hPa 0,0 l/m 0 min 0 min 0 W/m 9,7 km/h (2 Bft) 95,74 %
04.04.2021 00:36 5,0 C 4,4 C 1,7 C 79 % 1027,7 hPa 0,0 l/m 0 min 0 min 0 W/m 12,9 km/h (3 Bft) 95,74 %
04.04.2021 00:38 5,0 C 4,4 C 1,7 C 79 % 1027,7 hPa 0,0 l/m 0 min 0 min 0 W/m 12,9 km/h (3 Bft) 95,74 %
04.04.2021 00:40 4,9 C 3,9 C 1,7 C 79 % 1027,7 hPa 0,0 l/m 0 min 0 min 0 W/m 3,2 km/h (1 Bft) 91,30 %
04.04.2021 00:42 4,9 C 3,9 C 1,7 C 79 % 1027,7 hPa 0,0 l/m 0 min 0 min 0 W/m 3,2 km/h (1 Bft) 93,62 %
04.04.2021 00:44 4,9 C 3,9 C 1,7 C 80 % 1027,7 hPa 0,0 l/m 0 min 0 min 0 W/m 9,7 km/h (2 Bft) 93,62 %
04.04.2021 00:46 4,9 C 3,9 C 1,7 C 80 % 1027,7 hPa 0,0 l/m 0 min 0 min 0 W/m 9,7 km/h (2 Bft) 93,62 %
04.04.2021 00:48 4,9 C 3,9 C 1,7 C 80 % 1027,7 hPa 0,0 l/m 0 min 0 min 0 W/m 6,4 km/h (2 Bft) 93,62 %
04.04.2021 00:50 4,8 C 3,9 C 1,7 C 80 % 1027,7 hPa 0,0 l/m 0 min 0 min 0 W/m 12,9 km/h (3 Bft) 91,30 %
04.04.2021 00:52 4,8 C 3,9 C 1,7 C 80 % 1027,7 hPa 0,0 l/m 0 min 0 min 0 W/m 6,4 km/h (2 Bft) 95,74 %
04.04.2021 00:54 4,8 C 3,9 C 1,7 C 80 % 1027,7 hPa 0,0 l/m 0 min 0 min 0 W/m 9,7 km/h (2 Bft) 97,87 %
04.04.2021 00:56 4,8 C 3,9 C 1,7 C 80 % 1027,6 hPa 0,0 l/m 0 min 0 min 0 W/m 6,4 km/h (2 Bft) 97,87 %
04.04.2021 00:58 4,8 C 3,9 C 1,7 C 80 % 1027,6 hPa 0,0 l/m 0 min 0 min 0 W/m 9,7 km/h (2 Bft) 95,74 %
04.04.2021 01:00 4,7 C 3,9 C 1,7 C 80 % 1027,7 hPa 0,0 l/m 0 min 0 min 0 W/m 6,4 km/h (2 Bft) 93,62 %
04.04.2021 01:02 4,7 C 3,9 C 1,7 C 80 % 1027,7 hPa 0,0 l/m 0 min 0 min 0 W/m 6,4 km/h (2 Bft) 97,87 %
04.04.2021 01:04 4,6 C 3,9 C 1,7 C 80 % 1027,7 hPa 0,0 l/m 0 min 0 min 0 W/m 6,4 km/h (2 Bft) 97,87 %
04.04.2021 01:06 4,6 C 3,9 C 1,7 C 80 % 1027,7 hPa 0,0 l/m 0 min 0 min 0 W/m 6,4 km/h (2 Bft) 93,88 %
04.04.2021 01:08 4,6 C 3,9 C 1,7 C 80 % 1027,7 hPa 0,0 l/m 0 min 0 min 0 W/m 9,7 km/h (2 Bft) 97,87 %
04.04.2021 01:10 4,6 C 3,9 C 1,7 C 80 % 1027,6 hPa 0,0 l/m 0 min 0 min 0 W/m 3,2 km/h (1 Bft) 95,74 %
04.04.2021 01:12 4,6 C 3,9 C 1,7 C 80 % 1027,6 hPa 0,0 l/m 0 min 0 min 0 W/m 3,2 km/h (1 Bft) 97,83 %
04.04.2021 01:14 4,6 C 3,3 C 1,7 C 80 % 1027,6 hPa 0,0 l/m 0 min 0 min 0 W/m 0,0 km/h (0 Bft) 100,00 %
04.04.2021 01:16 4,5 C 3,3 C 1,1 C 80 % 1027,6 hPa 0,0 l/m 0 min 0 min 0 W/m 0,0 km/h (0 Bft) 97,87 %
04.04.2021 01:18 4,5 C 3,3 C 1,1 C 80 % 1027,6 hPa 0,0 l/m 0 min 0 min 0 W/m 3,2 km/h (1 Bft) 97,87 %
04.04.2021 01:20 4,5 C 3,3 C 1,1 C 80 % 1027,5 hPa 0,0 l/m 0 min 0 min 0 W/m 0,0 km/h (0 Bft) 97,87 %
04.04.2021 01:22 4,5 C 3,3 C 1,1 C 81 % 1027,5 hPa 0,0 l/m 0 min 0 min 0 W/m 6,4 km/h (2 Bft) 97,87 %
04.04.2021 01:24 4,4 C 3,3 C 1,1 C 81 % 1027,5 hPa 0,0 l/m 0 min 0 min 0 W/m 3,2 km/h (1 Bft) 95,65 %
04.04.2021 01:26 4,4 C 3,3 C 1,1 C 81 % 1027,5 hPa 0,0 l/m 0 min 0 min 0 W/m 0,0 km/h (0 Bft) 97,87 %
04.04.2021 01:28 4,4 C 3,3 C 1,1 C 81 % 1027,4 hPa 0,0 l/m 0 min 0 min 0 W/m 0,0 km/h (0 Bft) 97,87 %
04.04.2021 01:30 4,3 C 3,3 C 1,1 C 81 % 1027,5 hPa 0,0 l/m 0 min 0 min 0 W/m 0,0 km/h (0 Bft) 97,67 %
04.04.2021 01:32 4,3 C 2,8 C 1,1 C 81 % 1027,4 hPa 0,0 l/m 0 min 0 min 0 W/m 3,2 km/h (1 Bft) 97,92 %
04.04.2021 01:34 4,3 C 2,8 C 1,1 C 81 % 1027,5 hPa 0,0 l/m 0 min 0 min 0 W/m 0,0 km/h (0 Bft) 97,87 %
04.04.2021 01:36 4,3 C 2,8 C 1,1 C 81 % 1027,4 hPa 0,0 l/m 0 min 0 min 0 W/m 3,2 km/h (1 Bft) 97,83 %
04.04.2021 01:38 4,3 C 2,8 C 1,1 C 81 % 1027,4 hPa 0,0 l/m 0 min 0 min 0 W/m 0,0 km/h (0 Bft) 97,87 %
04.04.2021 01:40 4,2 C 2,8 C 1,1 C 81 % 1027,4 hPa 0,0 l/m 0 min 0 min 0 W/m 0,0 km/h (0 Bft) 97,87 %
04.04.2021 01:42 4,1 C 2,8 C 0,6 C 81 % 1027,4 hPa 0,0 l/m 0 min 0 min 0 W/m 3,2 km/h (1 Bft) 97,87 %
04.04.2021 01:44 4,1 C 2,8 C 0,6 C 82 % 1027,4 hPa 0,0 l/m 0 min 0 min 0 W/m 0,0 km/h (0 Bft) 97,87 %
04.04.2021 01:46 4,1 C 2,8 C 0,6 C 82 % 1027,5 hPa 0,0 l/m 0 min 0 min 0 W/m 0,0 km/h (0 Bft) 97,87 %
04.04.2021 01:48 4,1 C 2,8 C 0,6 C 82 % 1027,4 hPa 0,0 l/m 0 min 0 min 0 W/m 0,0 km/h (0 Bft) 97,87 %
04.04.2021 01:50 4,0 C 2,8 C 0,6 C 82 % 1027,4 hPa 0,0 l/m 0 min 0 min 0 W/m 0,0 km/h (0 Bft) 97,83 %
04.04.2021 01:52 4,0 C 2,8 C 0,6 C 83 % 1027,4 hPa 0,0 l/m 0 min 0 min 0 W/m 0,0 km/h (0 Bft) 97,87 %
04.04.2021 01:54 4,0 C 2,8 C 0,6 C 83 % 1027,5 hPa 0,0 l/m 0 min 0 min 0 W/m 3,2 km/h (1 Bft) 95,74 %
04.04.2021 01:56 3,9 C 2,8 C 0,6 C 83 % 1027,5 hPa 0,0 l/m 0 min 0 min 0 W/m 0,0 km/h (0 Bft) 53,33 %
04.04.2021 01:58 3,9 C 2,8 C 0,6 C 83 % 1027,4 hPa 0,0 l/m 0 min 0 min 0 W/m 6,4 km/h (2 Bft) 95,74 %
04.04.2021 02:00 3,9 C 2,8 C 0,6 C 83 % 1027,5 hPa 0,0 l/m 0 min 0 min 0 W/m 3,2 km/h (1 Bft) 97,83 %
04.04.2021 02:02 3,8 C 2,8 C 0,6 C 83 % 1027,4 hPa 0,0 l/m 0 min 0 min 0 W/m 6,4 km/h (2 Bft) 95,74 %
04.04.2021 02:04 3,8 C 2,8 C 0,6 C 83 % 1027,5 hPa 0,0 l/m 0 min 0 min 0 W/m 6,4 km/h (2 Bft) 95,74 %
04.04.2021 02:06 3,8 C 2,8 C 0,6 C 83 % 1027,5 hPa 0,0 l/m 0 min 0 min 0 W/m 3,2 km/h (1 Bft) 97,87 %
04.04.2021 02:08 3,7 C 2,8 C 0,6 C 83 % 1027,5 hPa 0,0 l/m 0 min 0 min 0 W/m 3,2 km/h (1 Bft) 95,74 %
04.04.2021 02:10 3,7 C 2,8 C 0,6 C 84 % 1027,5 hPa 0,0 l/m 0 min 0 min 0 W/m 0,0 km/h (0 Bft) 97,87 %
04.04.2021 02:12 3,6 C 2,8 C 0,6 C 84 % 1027,4 hPa 0,0 l/m 0 min 0 min 0 W/m 3,2 km/h (1 Bft) 97,83 %
04.04.2021 02:14 3,6 C 2,8 C 0,6 C 84 % 1027,5 hPa 0,0 l/m 0 min 0 min 0 W/m 3,2 km/h (1 Bft) 95,74 %
04.04.2021 02:16 3,6 C 2,8 C 0,6 C 84 % 1027,4 hPa 0,0 l/m 0 min 0 min 0 W/m 6,4 km/h (2 Bft) 97,87 %
04.04.2021 02:18 3,5 C 2,8 C 0,6 C 84 % 1027,4 hPa 0,0 l/m 0 min 0 min 0 W/m 3,2 km/h (1 Bft) 95,74 %
04.04.2021 02:20 3,5 C 2,8 C 0,6 C 84 % 1027,4 hPa 0,0 l/m 0 min 0 min 0 W/m 3,2 km/h (1 Bft) 95,74 %
04.04.2021 02:22 3,5 C 2,8 C 0,6 C 84 % 1027,3 hPa 0,0 l/m 0 min 0 min 0 W/m 3,2 km/h (1 Bft) 93,62 %
04.04.2021 02:24 3,5 C 2,2 C 0,6 C 84 % 1027,4 hPa 0,0 l/m 0 min 0 min 0 W/m 3,2 km/h (1 Bft) 93,48 %
04.04.2021 02:26 3,5 C 2,2 C 0,6 C 84 % 1027,4 hPa 0,0 l/m 0 min 0 min 0 W/m 3,2 km/h (1 Bft) 95,74 %
04.04.2021 02:28 3,4 C 2,2 C 0,6 C 84 % 1027,4 hPa 0,0 l/m 0 min 0 min 0 W/m 3,2 km/h (1 Bft) 95,74 %
04.04.2021 02:30 3,4 C 2,2 C 0,6 C 84 % 1027,4 hPa 0,0 l/m 0 min 0 min 0 W/m 0,0 km/h (0 Bft) 95,74 %
04.04.2021 02:32 3,4 C 2,2 C 0,6 C 84 % 1027,4 hPa 0,0 l/m 0 min 0 min 0 W/m 6,4 km/h (2 Bft) 95,74 %
04.04.2021 02:34 3,4 C 2,2 C 0,6 C 84 % 1027,4 hPa 0,0 l/m 0 min 0 min 0 W/m 3,2 km/h (1 Bft) 95,74 %
04.04.2021 02:36 3,3 C 2,2 C 0,6 C 84 % 1027,4 hPa 0,0 l/m 0 min 0 min 0 W/m 3,2 km/h (1 Bft) 95,65 %
04.04.2021 02:38 3,3 C 2,2 C 0,6 C 84 % 1027,4 hPa 0,0 l/m 0 min 0 min 0 W/m 9,7 km/h (2 Bft) 95,74 %
04.04.2021 02:40 3,3 C 2,2 C 0,6 C 84 % 1027,4 hPa 0,0 l/m 0 min 0 min 0 W/m 3,2 km/h (1 Bft) 95,74 %
04.04.2021 02:42 3,3 C 2,2 C 0,6 C 84 % 1027,4 hPa 0,0 l/m 0 min 0 min 0 W/m 6,4 km/h (2 Bft) 95,74 %
04.04.2021 02:44 3,2 C 2,2 C 0,6 C 84 % 1027,4 hPa 0,0 l/m 0 min 0 min 0 W/m 3,2 km/h (1 Bft) 95,74 %
04.04.2021 02:46 3,2 C 2,2 C 0,6 C 85 % 1027,3 hPa 0,0 l/m 0 min 0 min 0 W/m 3,2 km/h (1 Bft) 95,74 %
04.04.2021 02:48 3,2 C 2,2 C 0,6 C 85 % 1027,4 hPa 0,0 l/m 0 min 0 min 0 W/m 3,2 km/h (1 Bft) 93,48 %
04.04.2021 02:50 3,2 C 2,2 C 0,6 C 85 % 1027,3 hPa 0,0 l/m 0 min 0 min 0 W/m 0,0 km/h (0 Bft) 97,87 %
04.04.2021 02:52 3,1 C 2,2 C 0,6 C 85 % 1027,3 hPa 0,0 l/m 0 min 0 min 0 W/m 0,0 km/h (0 Bft) 95,74 %
04.04.2021 02:54 3,1 C 2,2 C 0,6 C 85 % 1027,3 hPa 0,0 l/m 0 min 0 min 0 W/m 0,0 km/h (0 Bft) 100,00 %
04.04.2021 02:56 3,1 C 2,2 C 0,6 C 85 % 1027,2 hPa 0,0 l/m 0 min 0 min 0 W/m 0,0 km/h (0 Bft) 97,87 %
04.04.2021 02:58 3,1 C 2,2 C 0,0 C 85 % 1027,3 hPa 0,0 l/m 0 min 0 min 0 W/m 0,0 km/h (0 Bft) 100,00 %
04.04.2021 03:00 3,1 C 2,2 C 0,0 C 85 % 1027,3 hPa 0,0 l/m 0 min 0 min 0 W/m 0,0 km/h (0 Bft) 97,83 %
04.04.2021 03:02 3,1 C 2,2 C 0,0 C 85 % 1027,2 hPa 0,0 l/m 0 min 0 min 0 W/m 3,2 km/h (1 Bft) 97,87 %
04.04.2021 03:04 3,0 C 2,2 C 0,0 C 85 % 1027,2 hPa 0,0 l/m 0 min 0 min 0 W/m 0,0 km/h (0 Bft) 100,00 %
04.04.2021 03:06 3,0 C 2,2 C 0,0 C 85 % 1027,2 hPa 0,0 l/m 0 min 0 min 0 W/m 0,0 km/h (0 Bft) 100,00 %
04.04.2021 03:08 3,0 C 2,2 C 0,0 C 85 % 1027,2 hPa 0,0 l/m 0 min 0 min 0 W/m 3,2 km/h (1 Bft) 100,00 %
04.04.2021 03:10 3,0 C 1,7 C 0,0 C 85 % 1027,2 hPa 0,0 l/m 0 min 0 min 0 W/m 0,0 km/h (0 Bft) 97,87 %
04.04.2021 03:12 2,9 C 1,7 C 0,0 C 85 % 1027,2 hPa 0,0 l/m 0 min 0 min 0 W/m 0,0 km/h (0 Bft) 100,00 %
04.04.2021 03:14 2,9 C 1,7 C 0,0 C 85 % 1027,2 hPa 0,0 l/m 0 min 0 min 0 W/m 3,2 km/h (1 Bft) 100,00 %
04.04.2021 03:16 2,9 C 1,7 C 0,0 C 85 % 1027,2 hPa 0,0 l/m 0 min 0 min 0 W/m 0,0 km/h (0 Bft) 97,87 %
04.04.2021 03:18 2,9 C 1,7 C 0,0 C 85 % 1027,3 hPa 0,0 l/m 0 min 0 min 0 W/m 0,0 km/h (0 Bft) 100,00 %
04.04.2021 03:20 2,9 C 1,7 C 0,0 C 86 % 1027,3 hPa 0,0 l/m 0 min 0 min 0 W/m 0,0 km/h (0 Bft) 97,87 %
04.04.2021 03:22 2,9 C 1,7 C 0,0 C 86 % 1027,3 hPa 0,0 l/m 0 min 0 min 0 W/m 0,0 km/h (0 Bft) 100,00 %
04.04.2021 03:24 2,8 C 1,7 C 0,0 C 86 % 1027,4 hPa 0,0 l/m 0 min 0 min 0 W/m 0,0 km/h (0 Bft) 100,00 %
04.04.2021 03:26 2,8 C 2,2 C 0,0 C 86 % 1027,4 hPa 0,0 l/m 0 min 0 min 0 W/m 0,0 km/h (0 Bft) 100,00 %
04.04.2021 03:28 2,8 C 2,2 C 0,0 C 86 % 1027,4 hPa 0,0 l/m 0 min 0 min 0 W/m 3,2 km/h (1 Bft) 100,00 %
04.04.2021 03:30 2,8 C 2,2 C 0,0 C 86 % 1027,4 hPa 0,0 l/m 0 min 0 min 0 W/m 0,0 km/h (0 Bft) 97,87 %
04.04.2021 03:32 2,8 C 2,2 C 0,0 C 86 % 1027,4 hPa 0,0 l/m 0 min 0 min 0 W/m 0,0 km/h (0 Bft) 100,00 %
04.04.2021 03:34 2,8 C 2,2 C 0,0 C 86 % 1027,4 hPa 0,0 l/m 0 min 0 min 0 W/m 0,0 km/h (0 Bft) 100,00 %
04.04.2021 03:36 2,8 C 2,2 C 0,0 C 86 % 1027,3 hPa 0,0 l/m 0 min 0 min 0 W/m 3,2 km/h (1 Bft) 100,00 %
04.04.2021 03:38 2,8 C 2,2 C 0,6 C 86 % 1027,3 hPa 0,0 l/m 0 min 0 min 0 W/m 3,2 km/h (1 Bft) 97,87 %
04.04.2021 03:40 2,8 C 2,2 C 0,6 C 87 % 1027,3 hPa 0,0 l/m 0 min 0 min 0 W/m 3,2 km/h (1 Bft) 97,87 %
04.04.2021 03:42 2,8 C 2,2 C 0,6 C 87 % 1027,3 hPa 0,0 l/m 0 min 0 min 0 W/m 3,2 km/h (1 Bft) 100,00 %
04.04.2021 03:44 2,8 C 2,8 C 0,6 C 87 % 1027,3 hPa 0,0 l/m 0 min 0 min 0 W/m 0,0 km/h (0 Bft) 100,00 %
04.04.2021 03:46 2,9 C 2,8 C 0,6 C 87 % 1027,3 hPa 0,0 l/m 0 min 0 min 0 W/m 0,0 km/h (0 Bft) 100,00 %
04.04.2021 03:48 2,9 C 2,8 C 0,6 C 87 % 1027,3 hPa 0,0 l/m 0 min 0 min 0 W/m 3,2 km/h (1 Bft) 97,83 %
04.04.2021 03:50 2,9 C 2,8 C 0,6 C 87 % 1027,3 hPa 0,0 l/m 0 min 0 min 0 W/m 0,0 km/h (0 Bft) 100,00 %
04.04.2021 03:52 3,0 C 2,8 C 0,6 C 87 % 1027,3 hPa 0,0 l/m 0 min 0 min 0 W/m 0,0 km/h (0 Bft) 97,87 %
04.04.2021 03:54 3,0 C 2,8 C 0,6 C 87 % 1027,3 hPa 0,0 l/m 0 min 0 min 0 W/m 3,2 km/h (1 Bft) 97,87 %
04.04.2021 03:56 3,1 C 2,8 C 0,6 C 87 % 1027,4 hPa 0,0 l/m 0 min 0 min 0 W/m 3,2 km/h (1 Bft) 97,87 %
04.04.2021 03:58 3,1 C 2,8 C 1,1 C 87 % 1027,3 hPa 0,0 l/m 0 min 0 min 0 W/m 3,2 km/h (1 Bft) 95,74 %
04.04.2021 04:00 3,1 C 2,8 C 1,1 C 87 % 1027,3 hPa 0,0 l/m 0 min 0 min 0 W/m 0,0 km/h (0 Bft) 95,92 %
04.04.2021 04:02 3,2 C 2,8 C 1,1 C 87 % 1027,3 hPa 0,0 l/m 0 min 0 min 0 W/m 3,2 km/h (1 Bft) 93,33 %
04.04.2021 04:04 3,3 C 2,8 C 1,1 C 87 % 1027,2 hPa 0,0 l/m 0 min 0 min 0 W/m 3,2 km/h (1 Bft) 87,23 %
04.04.2021 04:06 3,3 C 2,8 C 1,1 C 87 % 1027,2 hPa 0,0 l/m 0 min 0 min 0 W/m 3,2 km/h (1 Bft) 94,74 %
04.04.2021 04:08 3,3 C 2,8 C 1,1 C 87 % 1027,2 hPa 0,0 l/m 0 min 0 min 0 W/m 3,2 km/h (1 Bft) 97,92 %
04.04.2021 04:10 3,3 C 2,8 C 1,1 C 87 % 1027,2 hPa 0,0 l/m 0 min 0 min 0 W/m 0,0 km/h (0 Bft) 95,65 %
04.04.2021 04:12 3,4 C 2,8 C 1,1 C 87 % 1027,2 hPa 0,0 l/m 0 min 0 min 0 W/m 0,0 km/h (0 Bft) 95,74 %
04.04.2021 04:14 3,4 C 2,8 C 1,1 C 87 % 1027,2 hPa 0,0 l/m 0 min 0 min 0 W/m 3,2 km/h (1 Bft) 95,74 %
04.04.2021 04:16 3,4 C 2,8 C 1,1 C 87 % 1027,2 hPa 0,0 l/m 0 min 0 min 0 W/m 3,2 km/h (1 Bft) 95,74 %
04.04.2021 04:18 3,4 C 3,3 C 1,1 C 87 % 1027,2 hPa 0,0 l/m 0 min 0 min 0 W/m 3,2 km/h (1 Bft) 91,49 %
04.04.2021 04:20 3,5 C 3,3 C 1,1 C 87 % 1027,1 hPa 0,0 l/m 0 min 0 min 0 W/m 3,2 km/h (1 Bft) 93,62 %
04.04.2021 04:22 3,5 C 3,3 C 1,1 C 87 % 1027,1 hPa 0,0 l/m 0 min 0 min 0 W/m 3,2 km/h (1 Bft) 95,65 %
04.04.2021 04:24 3,5 C 3,3 C 1,1 C 87 % 1027,2 hPa 0,0 l/m 0 min 0 min 0 W/m 0,0 km/h (0 Bft) 93,62 %
04.04.2021 04:26 3,5 C 3,3 C 1,1 C 87 % 1027,2 hPa 0,0 l/m 0 min 0 min 0 W/m 0,0 km/h (0 Bft) 72,34 %
04.04.2021 04:28 3,5 C 3,3 C 1,1 C 87 % 1027,1 hPa 0,0 l/m 0 min 0 min 0 W/m 3,2 km/h (1 Bft) 74,42 %
04.04.2021 04:30 3,6 C 3,3 C 1,1 C 87 % 1027,2 hPa 0,0 l/m 0 min 0 min 0 W/m 0,0 km/h (0 Bft) 95,74 %
04.04.2021 04:32 3,6 C 3,3 C 1,1 C 87 % 1027,1 hPa 0,0 l/m 0 min 0 min 0 W/m 3,2 km/h (1 Bft) 97,87 %
04.04.2021 04:34 3,6 C 3,3 C 1,1 C 87 % 1027,1 hPa 0,0 l/m 0 min 0 min 0 W/m 0,0 km/h (0 Bft) 95,65 %
04.04.2021 04:36 3,6 C 3,3 C 1,1 C 87 % 1027,1 hPa 0,0 l/m 0 min 0 min 0 W/m 3,2 km/h (1 Bft) 93,62 %
04.04.2021 04:38 3,6 C 3,3 C 1,1 C 87 % 1027,1 hPa 0,0 l/m 0 min 0 min 0 W/m 3,2 km/h (1 Bft) 93,62 %
04.04.2021 04:40 3,6 C 3,3 C 1,1 C 87 % 1027,1 hPa 0,0 l/m 0 min 0 min 0 W/m 3,2 km/h (1 Bft) 93,62 %
04.04.2021 04:42 3,7 C 3,3 C 1,1 C 87 % 1027,1 hPa 0,0 l/m 0 min 0 min 0 W/m 0,0 km/h (0 Bft) 95,74 %
04.04.2021 04:44 3,7 C 3,3 C 1,1 C 87 % 1027,0 hPa 0,0 l/m 0 min 0 min 0 W/m 3,2 km/h (1 Bft) 91,49 %
04.04.2021 04:46 3,7 C 3,3 C 1,1 C 87 % 1027,1 hPa 0,0 l/m 0 min 0 min 0 W/m 0,0 km/h (0 Bft) 95,65 %
04.04.2021 04:48 3,7 C 3,3 C 1,1 C 87 % 1027,0 hPa 0,0 l/m 0 min 0 min 0 W/m 3,2 km/h (1 Bft) 97,87 %
04.04.2021 04:50 3,7 C 3,3 C 1,1 C 87 % 1027,0 hPa 0,0 l/m 0 min 0 min 0 W/m 3,2 km/h (1 Bft) 97,87 %
04.04.2021 04:52 3,7 C 3,3 C 1,7 C 87 % 1027,1 hPa 0,0 l/m 0 min 0 min 0 W/m 0,0 km/h (0 Bft) 97,87 %
04.04.2021 04:54 3,8 C 3,3 C 1,7 C 86 % 1027,1 hPa 0,0 l/m 0 min 0 min 0 W/m 3,2 km/h (1 Bft) 100,00 %
04.04.2021 04:56 3,8 C 3,3 C 1,7 C 86 % 1027,1 hPa 0,0 l/m 0 min 0 min 0 W/m 0,0 km/h (0 Bft) 100,00 %
04.04.2021 04:58 3,8 C 3,3 C 1,7 C 86 % 1027,1 hPa 0,0 l/m 0 min 0 min 0 W/m 3,2 km/h (1 Bft) 100,00 %
04.04.2021 05:00 3,8 C 3,3 C 1,7 C 86 % 1027,1 hPa 0,0 l/m 0 min 0 min 0 W/m 0,0 km/h (0 Bft) 97,87 %
04.04.2021 05:02 3,8 C 3,3 C 1,7 C 86 % 1027,1 hPa 0,0 l/m 0 min 0 min 0 W/m 3,2 km/h (1 Bft) 97,87 %
04.04.2021 05:04 3,8 C 3,3 C 1,7 C 86 % 1027,1 hPa 0,0 l/m 0 min 0 min 0 W/m 3,2 km/h (1 Bft) 100,00 %
04.04.2021 05:06 3,8 C 3,3 C 1,7 C 86 % 1027,1 hPa 0,0 l/m 0 min 0 min 0 W/m 0,0 km/h (0 Bft) 100,00 %
04.04.2021 05:08 3,8 C 3,3 C 1,7 C 86 % 1027,1 hPa 0,0 l/m 0 min 0 min 0 W/m 0,0 km/h (0 Bft) 100,00 %
04.04.2021 05:10 3,9 C 3,3 C 1,7 C 86 % 1027,1 hPa 0,0 l/m 0 min 0 min 0 W/m 3,2 km/h (1 Bft) 95,74 %
04.04.2021 05:12 3,9 C 3,3 C 1,7 C 86 % 1027,1 hPa 0,0 l/m 0 min 0 min 0 W/m 0,0 km/h (0 Bft) 100,00 %
04.04.2021 05:14 3,9 C 3,3 C 1,7 C 86 % 1027,1 hPa 0,0 l/m 0 min 0 min 0 W/m 3,2 km/h (1 Bft) 100,00 %
04.04.2021 05:16 3,9 C 3,3 C 1,7 C 86 % 1027,1 hPa 0,0 l/m 0 min 0 min 0 W/m 0,0 km/h (0 Bft) 100,00 %
04.04.2021 05:18 3,9 C 3,3 C 1,7 C 86 % 1027,1 hPa 0,0 l/m 0 min 0 min 0 W/m 0,0 km/h (0 Bft) 100,00 %
04.04.2021 05:20 3,9 C 3,3 C 1,7 C 86 % 1027,1 hPa 0,0 l/m 0 min 0 min 0 W/m 3,2 km/h (1 Bft) 97,83 %
04.04.2021 05:22 3,9 C 3,3 C 1,7 C 86 % 1027,1 hPa 0,0 l/m 0 min 0 min 0 W/m 0,0 km/h (0 Bft) 97,87 %
04.04.2021 05:24 3,9 C 3,3 C 1,7 C 86 % 1027,1 hPa 0,0 l/m 0 min 0 min 0 W/m 3,2 km/h (1 Bft) 100,00 %
04.04.2021 05:26 3,9 C 3,3 C 1,7 C 86 % 1027,1 hPa 0,0 l/m 0 min 0 min 0 W/m 3,2 km/h (1 Bft) 97,87 %
04.04.2021 05:28 3,9 C 3,3 C 1,7 C 86 % 1027,0 hPa 0,0 l/m 0 min 0 min 0 W/m 3,2 km/h (1 Bft) 100,00 %
04.04.2021 05:30 3,9 C 3,3 C 1,7 C 86 % 1027,0 hPa 0,0 l/m 0 min 0 min 0 W/m 0,0 km/h (0 Bft) 100,00 %
04.04.2021 05:32 3,9 C 3,3 C 1,7 C 86 % 1027,0 hPa 0,0 l/m 0 min 0 min 0 W/m 6,4 km/h (2 Bft) 97,22 %
04.04.2021 05:34 3,9 C 3,3 C 1,7 C 86 % 1027,0 hPa 0,0 l/m 0 min 0 min 0 W/m 3,2 km/h (1 Bft) 100,00 %
04.04.2021 05:36 4,0 C 3,3 C 1,7 C 86 % 1027,0 hPa 0,0 l/m 0 min 0 min 0 W/m 3,2 km/h (1 Bft) 97,83 %
04.04.2021 05:38 4,0 C 3,3 C 1,7 C 86 % 1026,9 hPa 0,0 l/m 0 min 0 min 0 W/m 3,2 km/h (1 Bft) 100,00 %
04.04.2021 05:40 4,0 C 3,3 C 1,7 C 86 % 1026,9 hPa 0,0 l/m 0 min 0 min 0 W/m 3,2 km/h (1 Bft) 100,00 %
04.04.2021 05:42 4,0 C 3,3 C 1,7 C 86 % 1026,9 hPa 0,0 l/m 0 min 0 min 0 W/m 3,2 km/h (1 Bft) 100,00 %
04.04.2021 05:44 4,0 C 3,3 C 1,7 C 86 % 1026,9 hPa 0,0 l/m 0 min 0 min 0 W/m 3,2 km/h (1 Bft) 100,00 %
04.04.2021 05:46 4,0 C 3,3 C 1,7 C 86 % 1027,0 hPa 0,0 l/m 0 min 0 min 0 W/m 6,4 km/h (2 Bft) 100,00 %
04.04.2021 05:48 4,0 C 3,3 C 1,7 C 86 % 1027,0 hPa 0,0 l/m 0 min 0 min 0 W/m 3,2 km/h (1 Bft) 100,00 %
04.04.2021 05:50 4,0 C 3,3 C 1,7 C 86 % 1026,9 hPa 0,0 l/m 0 min 0 min 0 W/m 3,2 km/h (1 Bft) 100,00 %
04.04.2021 05:52 4,0 C 3,3 C 1,7 C 86 % 1026,9 hPa 0,0 l/m 0 min 0 min 0 W/m 3,2 km/h (1 Bft) 100,00 %
04.04.2021 05:54 4,0 C 3,3 C 1,7 C 86 % 1027,0 hPa 0,0 l/m 0 min 0 min 0 W/m 3,2 km/h (1 Bft) 100,00 %
04.04.2021 05:56 4,0 C 3,3 C 1,7 C 86 % 1026,9 hPa 0,0 l/m 0 min 0 min 0 W/m 3,2 km/h (1 Bft) 100,00 %
04.04.2021 05:58 4,0 C 3,3 C 1,7 C 86 % 1026,9 hPa 0,0 l/m 0 min 0 min 0 W/m 0,0 km/h (0 Bft) 100,00 %
04.04.2021 06:00 4,0 C 3,3 C 1,7 C 86 % 1026,9 hPa 0,0 l/m 0 min 0 min 0 W/m 0,0 km/h (0 Bft) 100,00 %
04.04.2021 06:02 4,0 C 3,3 C 1,7 C 86 % 1026,9 hPa 0,0 l/m 0 min 0 min 0 W/m 0,0 km/h (0 Bft) 100,00 %
04.04.2021 06:04 4,0 C 3,3 C 1,7 C 86 % 1026,8 hPa 0,0 l/m 0 min 0 min 0 W/m 0,0 km/h (0 Bft) 97,87 %
04.04.2021 06:08 4,0 C 3,3 C 1,7 C 86 % 1026,7 hPa 0,0 l/m 0 min 0 min 0 W/m 3,2 km/h (1 Bft) 100,00 %
04.04.2021 06:10 4,1 C 3,3 C 1,7 C 86 % 1026,7 hPa 0,0 l/m 0 min 0 min 0 W/m 3,2 km/h (1 Bft) 100,00 %
04.04.2021 06:12 4,0 C 3,3 C 1,7 C 86 % 1026,6 hPa 0,0 l/m 0 min 0 min 0 W/m 6,4 km/h (2 Bft) 100,00 %
04.04.2021 06:14 4,1 C 3,3 C 1,7 C 86 % 1026,6 hPa 0,0 l/m 0 min 0 min 0 W/m 0,0 km/h (0 Bft) 100,00 %
04.04.2021 06:16 4,1 C 3,3 C 1,7 C 86 % 1026,6 hPa 0,0 l/m 0 min 0 min 0 W/m 3,2 km/h (1 Bft) 100,00 %
04.04.2021 06:18 4,1 C 3,9 C 1,7 C 86 % 1026,6 hPa 0,0 l/m 0 min 0 min 0 W/m 3,2 km/h (1 Bft) 97,87 %
04.04.2021 06:20 4,1 C 3,9 C 1,7 C 86 % 1026,6 hPa 0,0 l/m 0 min 0 min 0 W/m 0,0 km/h (0 Bft) 100,00 %
04.04.2021 06:22 4,1 C 3,9 C 1,7 C 86 % 1026,6 hPa 0,0 l/m 0 min 0 min 0 W/m 0,0 km/h (0 Bft) 97,83 %
04.04.2021 06:24 4,1 C 3,9 C 1,7 C 86 % 1026,6 hPa 0,0 l/m 0 min 0 min 0 W/m 3,2 km/h (1 Bft) 100,00 %
04.04.2021 06:26 4,1 C 3,9 C 1,7 C 86 % 1026,6 hPa 0,0 l/m 0 min 0 min 0 W/m 0,0 km/h (0 Bft) 100,00 %
04.04.2021 06:28 4,1 C 3,9 C 1,7 C 86 % 1026,6 hPa 0,0 l/m 0 min 0 min 0 W/m 0,0 km/h (0 Bft) 100,00 %
04.04.2021 06:30 4,1 C 3,9 C 1,7 C 86 % 1026,5 hPa 0,0 l/m 0 min 0 min 0 W/m 0,0 km/h (0 Bft) 93,62 %
04.04.2021 06:32 4,1 C 3,9 C 1,7 C 86 % 1026,5 hPa 0,0 l/m 0 min 0 min 0 W/m 3,2 km/h (1 Bft) 97,87 %
04.04.2021 06:34 4,1 C 3,9 C 1,7 C 86 % 1026,5 hPa 0,0 l/m 0 min 0 min 0 W/m 0,0 km/h (0 Bft) 97,83 %
04.04.2021 06:36 4,1 C 3,9 C 1,7 C 86 % 1026,5 hPa 0,0 l/m 0 min 0 min 0 W/m 0,0 km/h (0 Bft) 95,74 %
04.04.2021 06:38 4,2 C 3,9 C 1,7 C 86 % 1026,5 hPa 0,0 l/m 0 min 0 min 0 W/m 3,2 km/h (1 Bft) 97,87 %
04.04.2021 06:40 4,2 C 3,9 C 1,7 C 86 % 1026,5 hPa 0,0 l/m 0 min 0 min 0 W/m 3,2 km/h (1 Bft) 97,87 %
04.04.2021 06:42 4,2 C 3,9 C 1,7 C 86 % 1026,5 hPa 0,0 l/m 0 min 0 min 0 W/m 3,2 km/h (1 Bft) 97,87 %
04.04.2021 06:44 4,2 C 3,9 C 1,7 C 86 % 1026,5 hPa 0,0 l/m 0 min 0 min 0 W/m 0,0 km/h (0 Bft) 97,87 %
04.04.2021 06:46 4,2 C 3,9 C 1,7 C 86 % 1026,5 hPa 0,0 l/m 0 min 0 min 0 W/m 0,0 km/h (0 Bft) 97,83 %
04.04.2021 06:48 4,3 C 3,9 C 1,7 C 86 % 1026,4 hPa 0,0 l/m 0 min 0 min 0 W/m 0,0 km/h (0 Bft) 97,87 %
04.04.2021 06:50 4,2 C 3,9 C 1,7 C 86 % 1026,4 hPa 0,0 l/m 0 min 0 min 0 W/m 3,2 km/h (1 Bft) 95,74 %
04.04.2021 06:52 4,3 C 3,9 C 1,7 C 86 % 1026,4 hPa 0,0 l/m 0 min 0 min 0 W/m 3,2 km/h (1 Bft) 97,87 %
04.04.2021 06:54 4,3 C 3,9 C 1,7 C 86 % 1026,4 hPa 0,0 l/m 0 min 0 min 0 W/m 3,2 km/h (1 Bft) 97,87 %
04.04.2021 06:56 4,3 C 3,9 C 1,7 C 86 % 1026,4 hPa 0,0 l/m 0 min 0 min 0 W/m 3,2 km/h (1 Bft) 100,00 %
04.04.2021 06:58 4,3 C 3,9 C 1,7 C 86 % 1026,4 hPa 0,0 l/m 0 min 0 min 0 W/m 0,0 km/h (0 Bft) 97,83 %
04.04.2021 07:00 4,3 C 3,9 C 1,7 C 86 % 1026,4 hPa 0,0 l/m 0 min 0 min 0 W/m 6,4 km/h (2 Bft) 95,74 %
04.04.2021 07:02 4,3 C 3,9 C 1,7 C 86 % 1026,4 hPa 0,0 l/m 0 min 0 min 0 W/m 3,2 km/h (1 Bft) 97,87 %
04.04.2021 07:04 4,3 C 3,9 C 1,7 C 86 % 1026,4 hPa 0,0 l/m 0 min 0 min 0 W/m 3,2 km/h (1 Bft) 97,87 %
04.04.2021 07:06 4,3 C 3,9 C 1,7 C 86 % 1026,4 hPa 0,0 l/m 0 min 0 min 0 W/m 3,2 km/h (1 Bft) 95,74 %
04.04.2021 07:08 4,3 C 3,9 C 1,7 C 86 % 1026,5 hPa 0,0 l/m 0 min 0 min 0 W/m 6,4 km/h (2 Bft) 100,00 %
04.04.2021 07:10 4,3 C 3,9 C 1,7 C 86 % 1026,5 hPa 0,0 l/m 0 min 0 min 0 W/m 3,2 km/h (1 Bft) 100,00 %
04.04.2021 07:12 4,3 C 3,9 C 1,7 C 86 % 1026,5 hPa 0,0 l/m 0 min 0 min 0 W/m 3,2 km/h (1 Bft) 100,00 %
04.04.2021 07:14 4,3 C 3,9 C 1,7 C 85 % 1026,5 hPa 0,0 l/m 0 min 0 min 0 W/m 3,2 km/h (1 Bft) 100,00 %
04.04.2021 07:16 4,3 C 3,9 C 1,7 C 85 % 1026,5 hPa 0,0 l/m 0 min 0 min 0 W/m 3,2 km/h (1 Bft) 97,87 %
04.04.2021 07:18 4,3 C 3,9 C 1,7 C 85 % 1026,6 hPa 0,0 l/m 0 min 0 min 0 W/m 3,2 km/h (1 Bft) 97,87 %
04.04.2021 07:20 4,3 C 3,9 C 1,7 C 85 % 1026,5 hPa 0,0 l/m 0 min 0 min 0 W/m 3,2 km/h (1 Bft) 97,87 %
04.04.2021 07:22 4,3 C 3,9 C 1,7 C 85 % 1026,5 hPa 0,0 l/m 0 min 0 min 0 W/m 0,0 km/h (0 Bft) 95,65 %
04.04.2021 07:24 4,3 C 3,9 C 1,7 C 85 % 1026,6 hPa 0,0 l/m 0 min 0 min 5 W/m 3,2 km/h (1 Bft) 80,85 %
04.04.2021 07:26 4,3 C 3,9 C 2,3 C 85 % 1026,6 hPa 0,0 l/m 0 min 0 min 5 W/m 3,2 km/h (1 Bft) 65,12 %
04.04.2021 07:28 4,4 C 3,9 C 2,3 C 85 % 1026,6 hPa 0,0 l/m 0 min 0 min 5 W/m 3,2 km/h (1 Bft) 95,74 %
04.04.2021 07:30 4,4 C 3,9 C 2,3 C 85 % 1026,6 hPa 0,0 l/m 0 min 0 min 5 W/m 3,2 km/h (1 Bft) 93,62 %
04.04.2021 07:32 4,4 C 3,9 C 2,3 C 85 % 1026,5 hPa 0,0 l/m 0 min 0 min 7 W/m 3,2 km/h (1 Bft) 93,62 %
04.04.2021 07:34 4,4 C 3,9 C 2,3 C 85 % 1026,6 hPa 0,0 l/m 0 min 0 min 8 W/m 3,2 km/h (1 Bft) 97,83 %
04.04.2021 07:36 4,4 C 3,9 C 2,3 C 85 % 1026,5 hPa 0,0 l/m 0 min 0 min 9 W/m 3,2 km/h (1 Bft) 95,74 %
04.04.2021 07:38 4,4 C 3,9 C 2,3 C 85 % 1026,5 hPa 0,0 l/m 0 min 0 min 9 W/m 6,4 km/h (2 Bft) 95,74 %
04.04.2021 07:40 4,4 C 3,9 C 2,3 C 84 % 1026,5 hPa 0,0 l/m 0 min 0 min 11 W/m 3,2 km/h (1 Bft) 95,74 %
04.04.2021 07:42 4,4 C 3,9 C 2,3 C 84 % 1026,5 hPa 0,0 l/m 0 min 0 min 11 W/m 6,4 km/h (2 Bft) 95,74 %
04.04.2021 07:44 4,4 C 3,9 C 2,3 C 84 % 1026,4 hPa 0,0 l/m 0 min 0 min 12 W/m 0,0 km/h (0 Bft) 95,74 %
04.04.2021 07:46 4,4 C 3,9 C 2,3 C 84 % 1026,5 hPa 0,0 l/m 0 min 0 min 12 W/m 3,2 km/h (1 Bft) 95,65 %
04.04.2021 07:48 4,4 C 3,9 C 2,3 C 84 % 1026,5 hPa 0,0 l/m 0 min 0 min 13 W/m 0,0 km/h (0 Bft) 95,74 %
04.04.2021 07:50 4,4 C 4,4 C 2,3 C 84 % 1026,5 hPa 0,0 l/m 0 min 0 min 14 W/m 3,2 km/h (1 Bft) 93,62 %
04.04.2021 07:52 4,4 C 4,4 C 2,3 C 84 % 1026,6 hPa 0,0 l/m 0 min 0 min 14 W/m 3,2 km/h (1 Bft) 95,74 %
04.04.2021 07:54 4,4 C 4,4 C 2,3 C 84 % 1026,5 hPa 0,0 l/m 0 min 0 min 14 W/m 3,2 km/h (1 Bft) 95,74 %
04.04.2021 07:56 4,4 C 4,4 C 2,3 C 84 % 1026,5 hPa 0,0 l/m 0 min 0 min 16 W/m 6,4 km/h (2 Bft) 93,62 %
04.04.2021 07:58 4,4 C 4,4 C 2,3 C 84 % 1026,5 hPa 0,0 l/m 0 min 0 min 16 W/m 0,0 km/h (0 Bft) 95,65 %
04.04.2021 08:00 4,5 C 4,4 C 2,3 C 84 % 1026,6 hPa 0,0 l/m 0 min 0 min 18 W/m 0,0 km/h (0 Bft) 93,62 %
04.04.2021 08:02 4,5 C 4,4 C 2,3 C 84 % 1026,6 hPa 0,0 l/m 0 min 0 min 18 W/m 3,2 km/h (1 Bft) 92,45 %
04.04.2021 08:04 4,5 C 4,4 C 2,3 C 84 % 1026,5 hPa 0,0 l/m 0 min 0 min 19 W/m 3,2 km/h (1 Bft) 95,74 %
04.04.2021 08:06 4,5 C 4,4 C 2,3 C 84 % 1026,5 hPa 0,0 l/m 0 min 0 min 19 W/m 6,4 km/h (2 Bft) 93,62 %
04.04.2021 08:08 4,5 C 4,4 C 2,3 C 84 % 1026,6 hPa 0,0 l/m 0 min 0 min 21 W/m 3,2 km/h (1 Bft) 95,65 %
04.04.2021 08:10 4,5 C 4,4 C 2,3 C 84 % 1026,5 hPa 0,0 l/m 0 min 0 min 21 W/m 3,2 km/h (1 Bft) 97,87 %
04.04.2021 08:12 4,6 C 4,4 C 2,3 C 83 % 1026,5 hPa 0,0 l/m 0 min 0 min 22 W/m 3,2 km/h (1 Bft) 95,74 %
04.04.2021 08:14 4,6 C 4,4 C 2,3 C 83 % 1026,5 hPa 0,0 l/m 0 min 0 min 24 W/m 3,2 km/h (1 Bft) 97,87 %
04.04.2021 08:16 4,6 C 4,4 C 2,3 C 83 % 1026,5 hPa 0,0 l/m 0 min 0 min 25 W/m 3,2 km/h (1 Bft) 97,56 %
04.04.2021 08:18 4,6 C 4,4 C 2,3 C 83 % 1026,5 hPa 0,0 l/m 0 min 0 min 26 W/m 3,2 km/h (1 Bft) 95,74 %
04.04.2021 08:20 4,6 C 4,4 C 2,3 C 83 % 1026,5 hPa 0,0 l/m 0 min 0 min 27 W/m 3,2 km/h (1 Bft) 97,87 %
04.04.2021 08:22 4,7 C 4,4 C 2,3 C 83 % 1026,4 hPa 0,0 l/m 0 min 0 min 28 W/m 0,0 km/h (0 Bft) 97,83 %
04.04.2021 08:24 4,7 C 4,4 C 2,3 C 83 % 1026,5 hPa 0,0 l/m 0 min 0 min 28 W/m 3,2 km/h (1 Bft) 97,87 %
04.04.2021 08:26 4,7 C 4,4 C 2,3 C 83 % 1026,4 hPa 0,0 l/m 0 min 0 min 29 W/m 3,2 km/h (1 Bft) 97,87 %
04.04.2021 08:28 4,8 C 4,4 C 2,8 C 83 % 1026,4 hPa 0,0 l/m 0 min 0 min 30 W/m 0,0 km/h (0 Bft) 53,49 %
04.04.2021 08:30 4,8 C 4,4 C 2,8 C 83 % 1026,5 hPa 0,0 l/m 0 min 0 min 31 W/m 3,2 km/h (1 Bft) 97,87 %
04.04.2021 08:32 4,8 C 4,4 C 2,8 C 83 % 1026,4 hPa 0,0 l/m 0 min 0 min 32 W/m 3,2 km/h (1 Bft) 95,65 %
04.04.2021 08:34 4,8 C 4,4 C 2,8 C 83 % 1026,4 hPa 0,0 l/m 0 min 0 min 33 W/m 3,2 km/h (1 Bft) 97,87 %
04.04.2021 08:36 4,8 C 4,4 C 2,8 C 83 % 1026,5 hPa 0,0 l/m 0 min 0 min 33 W/m 6,4 km/h (2 Bft) 98,11 %
04.04.2021 08:38 4,8 C 4,4 C 2,8 C 83 % 1026,4 hPa 0,0 l/m 0 min 0 min 35 W/m 3,2 km/h (1 Bft) 97,87 %
04.04.2021 08:40 4,9 C 4,4 C 2,8 C 83 % 1026,4 hPa 0,0 l/m 0 min 0 min 35 W/m 6,4 km/h (2 Bft) 93,62 %
04.04.2021 08:42 4,9 C 5,0 C 2,8 C 82 % 1026,4 hPa 0,0 l/m 0 min 0 min 35 W/m 6,4 km/h (2 Bft) 97,83 %
04.04.2021 08:44 4,9 C 5,0 C 2,8 C 82 % 1026,4 hPa 0,0 l/m 0 min 0 min 35 W/m 6,4 km/h (2 Bft) 97,87 %
04.04.2021 08:46 4,9 C 5,0 C 2,8 C 82 % 1026,4 hPa 0,0 l/m 0 min 0 min 36 W/m 6,4 km/h (2 Bft) 95,12 %
04.04.2021 08:48 4,9 C 5,0 C 2,8 C 82 % 1026,4 hPa 0,0 l/m 0 min 0 min 38 W/m 3,2 km/h (1 Bft) 95,74 %
04.04.2021 08:50 4,9 C 5,0 C 2,8 C 82 % 1026,4 hPa 0,0 l/m 0 min 0 min 39 W/m 3,2 km/h (1 Bft) 100,00 %
04.04.2021 08:52 4,9 C 5,0 C 2,8 C 82 % 1026,4 hPa 0,0 l/m 0 min 0 min 40 W/m 6,4 km/h (2 Bft) 100,00 %
04.04.2021 08:54 5,0 C 5,0 C 2,8 C 82 % 1026,5 hPa 0,0 l/m 0 min 0 min 40 W/m 9,7 km/h (2 Bft) 97,87 %
04.04.2021 08:56 5,0 C 5,0 C 2,8 C 82 % 1026,4 hPa 0,0 l/m 0 min 0 min 40 W/m 9,7 km/h (2 Bft) 97,83 %
04.04.2021 08:58 5,0 C 5,0 C 2,8 C 82 % 1026,4 hPa 0,0 l/m 0 min 0 min 42 W/m 3,2 km/h (1 Bft) 95,74 %
04.04.2021 09:00 5,0 C 5,0 C 2,8 C 82 % 1026,5 hPa 0,0 l/m 0 min 0 min 44 W/m 3,2 km/h (1 Bft) 97,87 %
04.04.2021 09:02 5,0 C 5,0 C 2,8 C 82 % 1026,5 hPa 0,0 l/m 0 min 0 min 44 W/m 3,2 km/h (1 Bft) 98,15 %
04.04.2021 09:04 5,0 C 5,0 C 2,8 C 82 % 1026,6 hPa 0,0 l/m 0 min 0 min 44 W/m 9,7 km/h (2 Bft) 97,87 %
04.04.2021 09:06 5,0 C 5,0 C 2,8 C 82 % 1026,7 hPa 0,0 l/m 0 min 0 min 44 W/m 12,9 km/h (3 Bft) 97,83 %
04.04.2021 09:08 5,0 C 5,0 C 2,8 C 81 % 1026,6 hPa 0,0 l/m 0 min 0 min 46 W/m 9,7 km/h (2 Bft) 95,74 %
04.04.2021 09:10 5,0 C 5,0 C 2,8 C 81 % 1026,6 hPa 0,0 l/m 0 min 0 min 47 W/m 3,2 km/h (1 Bft) 95,74 %
04.04.2021 09:12 5,1 C 5,0 C 2,8 C 81 % 1026,6 hPa 0,0 l/m 0 min 0 min 49 W/m 3,2 km/h (1 Bft) 95,74 %
04.04.2021 09:14 5,1 C 5,0 C 2,8 C 81 % 1026,6 hPa 0,0 l/m 0 min 0 min 50 W/m 6,4 km/h (2 Bft) 97,87 %
04.04.2021 09:16 5,1 C 5,0 C 2,8 C 81 % 1026,7 hPa 0,0 l/m 0 min 0 min 51 W/m 6,4 km/h (2 Bft) 97,56 %
04.04.2021 09:18 5,1 C 5,0 C 2,8 C 81 % 1026,6 hPa 0,0 l/m 0 min 0 min 51 W/m 6,4 km/h (2 Bft) 93,62 %
04.04.2021 09:20 5,1 C 5,0 C 2,8 C 81 % 1026,5 hPa 0,0 l/m 0 min 0 min 52 W/m 6,4 km/h (2 Bft) 97,83 %
04.04.2021 09:22 5,1 C 5,0 C 2,8 C 81 % 1026,5 hPa 0,0 l/m 0 min 0 min 54 W/m 3,2 km/h (1 Bft) 97,87 %
04.04.2021 09:24 5,1 C 5,0 C 2,8 C 81 % 1026,5 hPa 0,0 l/m 0 min 0 min 56 W/m 3,2 km/h (1 Bft) 97,87 %
04.04.2021 09:26 5,1 C 5,0 C 2,8 C 81 % 1026,5 hPa 0,0 l/m 0 min 0 min 56 W/m 9,7 km/h (2 Bft) 97,87 %
04.04.2021 09:28 5,2 C 5,0 C 2,8 C 81 % 1026,5 hPa 0,0 l/m 0 min 0 min 56 W/m 6,4 km/h (2 Bft) 97,87 %
04.04.2021 09:30 5,2 C 5,0 C 2,8 C 80 % 1026,5 hPa 0,0 l/m 0 min 0 min 57 W/m 3,2 km/h (1 Bft) 93,62 %
04.04.2021 09:32 5,2 C 5,0 C 2,8 C 80 % 1026,5 hPa 0,0 l/m 0 min 0 min 58 W/m 3,2 km/h (1 Bft) 95,65 %
04.04.2021 09:34 5,3 C 5,0 C 2,8 C 80 % 1026,5 hPa 0,0 l/m 0 min 0 min 60 W/m 6,4 km/h (2 Bft) 97,87 %
04.04.2021 09:36 5,3 C 5,0 C 2,8 C 80 % 1026,5 hPa 0,0 l/m 0 min 0 min 62 W/m 3,2 km/h (1 Bft) 98,11 %
04.04.2021 09:38 5,3 C 5,0 C 3,4 C 80 % 1026,4 hPa 0,0 l/m 0 min 0 min 62 W/m 3,2 km/h (1 Bft) 97,87 %
04.04.2021 09:40 5,3 C 5,0 C 3,4 C 80 % 1026,4 hPa 0,0 l/m 0 min 0 min 62 W/m 3,2 km/h (1 Bft) 100,00 %
04.04.2021 09:42 5,3 C 5,6 C 3,4 C 80 % 1026,4 hPa 0,0 l/m 0 min 0 min 64 W/m 3,2 km/h (1 Bft) 100,00 %
04.04.2021 09:44 5,4 C 5,6 C 3,4 C 80 % 1026,4 hPa 0,0 l/m 0 min 0 min 67 W/m 6,4 km/h (2 Bft) 100,00 %
04.04.2021 09:46 5,4 C 5,6 C 3,4 C 80 % 1026,4 hPa 0,0 l/m 0 min 0 min 70 W/m 0,0 km/h (0 Bft) 100,00 %
04.04.2021 09:48 5,4 C 5,6 C 3,4 C 80 % 1026,4 hPa 0,0 l/m 0 min 0 min 75 W/m 3,2 km/h (1 Bft) 100,00 %
04.04.2021 09:50 5,4 C 5,0 C 3,4 C 81 % 1026,4 hPa 0,0 l/m 0 min 0 min 76 W/m 6,4 km/h (2 Bft) 97,87 %
04.04.2021 09:52 5,5 C 5,6 C 3,4 C 80 % 1026,4 hPa 0,0 l/m 0 min 0 min 75 W/m 6,4 km/h (2 Bft) 100,00 %
04.04.2021 09:54 5,5 C 5,6 C 3,4 C 80 % 1026,4 hPa 0,0 l/m 0 min 0 min 74 W/m 9,7 km/h (2 Bft) 100,00 %
04.04.2021 09:56 5,5 C 5,6 C 3,4 C 80 % 1026,3 hPa 0,0 l/m 0 min 0 min 75 W/m 3,2 km/h (1 Bft) 100,00 %
04.04.2021 09:58 5,5 C 5,6 C 3,4 C 80 % 1026,3 hPa 0,0 l/m 0 min 0 min 78 W/m 3,2 km/h (1 Bft) 97,87 %
04.04.2021 10:00 5,5 C 5,6 C 3,4 C 80 % 1026,3 hPa 0,0 l/m 0 min 0 min 80 W/m 3,2 km/h (1 Bft) 100,00 %
04.04.2021 10:02 5,5 C 5,6 C 3,4 C 80 % 1026,3 hPa 0,0 l/m 0 min 0 min 80 W/m 3,2 km/h (1 Bft) 97,92 %
04.04.2021 10:04 5,5 C 5,6 C 3,4 C 80 % 1026,4 hPa 0,0 l/m 0 min 0 min 78 W/m 3,2 km/h (1 Bft) 100,00 %
04.04.2021 10:06 5,5 C 5,6 C 3,4 C 80 % 1026,4 hPa 0,0 l/m 0 min 0 min 77 W/m 6,4 km/h (2 Bft) 100,00 %
04.04.2021 10:08 5,5 C 5,6 C 3,4 C 80 % 1026,5 hPa 0,0 l/m 0 min 0 min 76 W/m 6,4 km/h (2 Bft) 100,00 %
04.04.2021 10:10 5,5 C 5,6 C 3,4 C 80 % 1026,5 hPa 0,0 l/m 0 min 0 min 73 W/m 3,2 km/h (1 Bft) 100,00 %
04.04.2021 10:12 5,6 C 5,6 C 3,4 C 80 % 1026,5 hPa 0,0 l/m 0 min 0 min 75 W/m 6,4 km/h (2 Bft) 100,00 %
04.04.2021 10:14 5,6 C 5,6 C 3,4 C 80 % 1026,5 hPa 0,0 l/m 0 min 0 min 79 W/m 6,4 km/h (2 Bft) 100,00 %
04.04.2021 10:16 5,6 C 5,6 C 3,4 C 80 % 1026,5 hPa 0,0 l/m 0 min 0 min 83 W/m 3,2 km/h (1 Bft) 100,00 %
04.04.2021 10:18 5,6 C 5,6 C 3,4 C 80 % 1026,5 hPa 0,0 l/m 0 min 0 min 88 W/m 6,4 km/h (2 Bft) 100,00 %
04.04.2021 10:20 5,6 C 5,6 C 3,4 C 80 % 1026,5 hPa 0,0 l/m 0 min 0 min 91 W/m 3,2 km/h (1 Bft) 100,00 %
04.04.2021 10:22 5,6 C 5,6 C 3,4 C 80 % 1026,4 hPa 0,0 l/m 0 min 0 min 91 W/m 6,4 km/h (2 Bft) 93,62 %
04.04.2021 10:24 5,6 C 5,6 C 3,4 C 80 % 1026,5 hPa 0,0 l/m 0 min 0 min 88 W/m 3,2 km/h (1 Bft) 97,87 %
04.04.2021 10:26 5,6 C 5,6 C 3,4 C 80 % 1026,5 hPa 0,0 l/m 0 min 0 min 83 W/m 6,4 km/h (2 Bft) 97,87 %
04.04.2021 10:28 5,6 C 5,6 C 3,4 C 80 % 1026,6 hPa 0,0 l/m 0 min 0 min 81 W/m 19,3 km/h (3 Bft) 97,83 %
04.04.2021 10:30 5,6 C 5,6 C 3,4 C 80 % 1026,5 hPa 0,0 l/m 0 min 0 min 82 W/m 9,7 km/h (2 Bft) 97,87 %
04.04.2021 10:32 5,6 C 5,6 C 3,4 C 80 % 1026,5 hPa 0,0 l/m 0 min 0 min 84 W/m 6,4 km/h (2 Bft) 97,92 %
04.04.2021 10:34 5,6 C 5,6 C 3,4 C 80 % 1026,5 hPa 0,0 l/m 0 min 0 min 87 W/m 9,7 km/h (2 Bft) 97,87 %
04.04.2021 10:36 5,6 C 5,6 C 3,4 C 80 % 1026,5 hPa 0,0 l/m 0 min 0 min 91 W/m 12,9 km/h (3 Bft) 97,87 %
04.04.2021 10:38 5,7 C 5,6 C 3,4 C 80 % 1026,5 hPa 0,0 l/m 0 min 0 min 97 W/m 9,7 km/h (2 Bft) 97,87 %
04.04.2021 10:40 5,7 C 5,6 C 3,4 C 80 % 1026,5 hPa 0,0 l/m 0 min 0 min 98 W/m 12,9 km/h (3 Bft) 95,65 %
04.04.2021 10:42 5,7 C 5,6 C 3,4 C 80 % 1026,5 hPa 0,0 l/m 0 min 0 min 99 W/m 6,4 km/h (2 Bft) 95,74 %
04.04.2021 10:44 5,7 C 6,1 C 3,4 C 80 % 1026,5 hPa 0,0 l/m 0 min 0 min 97 W/m 9,7 km/h (2 Bft) 97,87 %
04.04.2021 10:46 5,7 C 6,1 C 3,4 C 80 % 1026,5 hPa 0,0 l/m 0 min 0 min 94 W/m 9,7 km/h (2 Bft) 97,87 %
04.04.2021 10:48 5,8 C 5,6 C 3,4 C 80 % 1026,5 hPa 0,0 l/m 0 min 0 min 91 W/m 9,7 km/h (2 Bft) 97,87 %
04.04.2021 10:50 5,8 C 5,6 C 3,4 C 80 % 1026,6 hPa 0,0 l/m 0 min 0 min 90 W/m 9,7 km/h (2 Bft) 50,00 %
04.04.2021 10:52 5,8 C 5,6 C 3,4 C 80 % 1026,6 hPa 0,0 l/m 0 min 0 min 85 W/m 6,4 km/h (2 Bft) 97,83 %
04.04.2021 10:54 5,8 C 6,1 C 3,4 C 80 % 1026,6 hPa 0,0 l/m 0 min 0 min 86 W/m 9,7 km/h (2 Bft) 97,87 %
04.04.2021 10:56 5,8 C 6,1 C 3,4 C 80 % 1026,6 hPa 0,0 l/m 0 min 0 min 89 W/m 6,4 km/h (2 Bft) 95,74 %
04.04.2021 10:58 5,8 C 5,6 C 3,4 C 80 % 1026,7 hPa 0,0 l/m 0 min 0 min 90 W/m 6,4 km/h (2 Bft) 97,87 %
04.04.2021 11:00 5,8 C 5,6 C 3,4 C 80 % 1026,6 hPa 0,0 l/m 0 min 0 min 94 W/m 9,7 km/h (2 Bft) 97,92 %
04.04.2021 11:02 5,9 C 5,6 C 3,4 C 80 % 1026,6 hPa 0,0 l/m 0 min 0 min 98 W/m 6,4 km/h (2 Bft) 94,44 %
04.04.2021 11:04 5,9 C 6,1 C 3,4 C 80 % 1026,5 hPa 0,0 l/m 0 min 0 min 100 W/m 6,4 km/h (2 Bft) 97,87 %
04.04.2021 11:06 5,9 C 6,1 C 3,9 C 80 % 1026,6 hPa 0,0 l/m 0 min 0 min 105 W/m 9,7 km/h (2 Bft) 98,28 %
04.04.2021 11:08 5,9 C 6,1 C 3,9 C 79 % 1026,5 hPa 0,0 l/m 0 min 0 min 108 W/m 6,4 km/h (2 Bft) 97,14 %
04.04.2021 11:10 5,9 C 6,1 C 3,9 C 79 % 1026,5 hPa 0,0 l/m 0 min 0 min 113 W/m 9,7 km/h (2 Bft) 100,00 %
04.04.2021 11:12 5,9 C 6,1 C 3,9 C 79 % 1026,6 hPa 0,0 l/m 0 min 0 min 114 W/m 9,7 km/h (2 Bft) 100,00 %
04.04.2021 11:14 5,9 C 6,1 C 3,9 C 80 % 1026,5 hPa 0,0 l/m 0 min 0 min 118 W/m 6,4 km/h (2 Bft) 100,00 %
04.04.2021 11:16 6,0 C 6,1 C 3,9 C 80 % 1026,5 hPa 0,0 l/m 0 min 0 min 124 W/m 6,4 km/h (2 Bft) 100,00 %
04.04.2021 11:18 6,0 C 6,1 C 3,9 C 80 % 1026,4 hPa 0,0 l/m 0 min 0 min 127 W/m 6,4 km/h (2 Bft) 97,83 %
04.04.2021 11:20 6,0 C 6,1 C 3,9 C 80 % 1026,4 hPa 0,0 l/m 0 min 0 min 124 W/m 9,7 km/h (2 Bft) 100,00 %
04.04.2021 11:22 6,0 C 6,1 C 3,9 C 80 % 1026,5 hPa 0,0 l/m 0 min 0 min 120 W/m 6,4 km/h (2 Bft) 100,00 %
04.04.2021 11:24 6,0 C 6,1 C 3,9 C 80 % 1026,5 hPa 0,0 l/m 0 min 0 min 121 W/m 12,9 km/h (3 Bft) 97,87 %
04.04.2021 11:27 6,0 C 6,1 C 3,9 C 79 % 1026,4 hPa 0,0 l/m 0 min 0 min 124 W/m 16,1 km/h (3 Bft) 98,63 %
04.04.2021 11:28 6,0 C 6,1 C 3,9 C 79 % 1026,4 hPa 0,0 l/m 0 min 0 min 128 W/m 6,4 km/h (2 Bft) 100,00 %
04.04.2021 11:30 6,1 C 6,7 C 3,9 C 79 % 1026,4 hPa 0,0 l/m 0 min 0 min 133 W/m 9,7 km/h (2 Bft) 100,00 %
04.04.2021 11:32 6,1 C 6,7 C 3,9 C 79 % 1026,5 hPa 0,0 l/m 0 min 0 min 141 W/m 9,7 km/h (2 Bft) 100,00 %
04.04.2021 11:34 6,1 C 6,7 C 3,9 C 79 % 1026,4 hPa 0,0 l/m 0 min 0 min 147 W/m 12,9 km/h (3 Bft) 97,87 %
04.04.2021 11:36 6,1 C 6,7 C 3,9 C 79 % 1026,4 hPa 0,0 l/m 0 min 0 min 154 W/m 9,7 km/h (2 Bft) 100,00 %
04.04.2021 11:38 6,1 C 6,7 C 3,9 C 79 % 1026,3 hPa 0,0 l/m 0 min 0 min 159 W/m 12,9 km/h (3 Bft) 97,87 %
04.04.2021 11:40 6,2 C 6,7 C 4,5 C 79 % 1026,5 hPa 0,0 l/m 0 min 0 min 164 W/m 12,9 km/h (3 Bft) 97,87 %
04.04.2021 11:42 6,2 C 6,7 C 4,5 C 79 % 1026,4 hPa 0,0 l/m 0 min 0 min 169 W/m 12,9 km/h (3 Bft) 97,83 %
04.04.2021 11:44 6,3 C 6,7 C 4,5 C 79 % 1026,4 hPa 0,0 l/m 0 min 0 min 169 W/m 6,4 km/h (2 Bft) 97,87 %
04.04.2021 11:46 6,3 C 6,7 C 4,5 C 79 % 1026,4 hPa 0,0 l/m 0 min 0 min 162 W/m 19,3 km/h (3 Bft) 97,87 %
04.04.2021 11:48 6,4 C 6,7 C 4,5 C 79 % 1026,4 hPa 0,0 l/m 0 min 0 min 155 W/m 22,5 km/h (4 Bft) 95,74 %
04.04.2021 11:50 6,4 C 6,7 C 4,5 C 78 % 1026,3 hPa 0,0 l/m 0 min 0 min 152 W/m 12,9 km/h (3 Bft) 95,74 %
04.04.2021 11:52 6,4 C 6,7 C 4,5 C 78 % 1026,4 hPa 0,0 l/m 0 min 0 min 152 W/m 9,7 km/h (2 Bft) 95,74 %
04.04.2021 11:54 6,4 C 6,7 C 4,5 C 78 % 1026,3 hPa 0,0 l/m 0 min 0 min 148 W/m 6,4 km/h (2 Bft) 95,65 %
04.04.2021 11:56 6,4 C 6,7 C 4,5 C 78 % 1026,3 hPa 0,0 l/m 0 min 0 min 142 W/m 12,9 km/h (3 Bft) 95,74 %
04.04.2021 11:58 6,4 C 6,7 C 4,5 C 78 % 1026,2 hPa 0,0 l/m 0 min 0 min 135 W/m 16,1 km/h (3 Bft) 95,74 %
04.04.2021 12:00 6,4 C 6,7 C 4,5 C 78 % 1026,3 hPa 0,0 l/m 0 min 0 min 128 W/m 9,7 km/h (2 Bft) 93,62 %
04.04.2021 12:02 6,4 C 6,7 C 4,5 C 78 % 1026,2 hPa 0,0 l/m 0 min 0 min 127 W/m 9,7 km/h (2 Bft) 93,62 %
04.04.2021 12:04 6,5 C 6,7 C 4,5 C 78 % 1026,2 hPa 0,0 l/m 0 min 0 min 129 W/m 12,9 km/h (3 Bft) 95,65 %
04.04.2021 12:08 6,5 C 6,7 C 4,5 C 78 % 1026,2 hPa 0,0 l/m 0 min 0 min 131 W/m 9,7 km/h (2 Bft) 95,74 %
04.04.2021 12:10 6,5 C 6,7 C 4,5 C 78 % 1026,2 hPa 0,0 l/m 0 min 0 min 124 W/m 22,5 km/h (4 Bft) 95,74 %
04.04.2021 12:12 6,5 C 6,7 C 4,5 C 78 % 1026,1 hPa 0,0 l/m 0 min 0 min 124 W/m 9,7 km/h (2 Bft) 47,50 %
04.04.2021 12:14 6,5 C 6,7 C 4,5 C 78 % 1026,1 hPa 0,0 l/m 0 min 0 min 125 W/m 6,4 km/h (2 Bft) 95,74 %
04.04.2021 12:16 6,5 C 6,7 C 4,5 C 78 % 1026,1 hPa 0,0 l/m 0 min 0 min 125 W/m 6,4 km/h (2 Bft) 95,74 %
04.04.2021 12:18 6,5 C 6,7 C 4,5 C 78 % 1026,1 hPa 0,0 l/m 0 min 0 min 128 W/m 9,7 km/h (2 Bft) 95,65 %
04.04.2021 12:20 6,5 C 6,7 C 4,5 C 78 % 1026,0 hPa 0,0 l/m 0 min 0 min 132 W/m 9,7 km/h (2 Bft) 95,74 %
04.04.2021 12:22 6,5 C 6,7 C 4,5 C 78 % 1026,1 hPa 0,0 l/m 0 min 0 min 137 W/m 12,9 km/h (3 Bft) 93,62 %
04.04.2021 12:24 6,5 C 6,7 C 4,5 C 78 % 1026,0 hPa 0,0 l/m 0 min 0 min 143 W/m 6,4 km/h (2 Bft) 95,74 %
04.04.2021 12:26 6,5 C 6,7 C 4,5 C 78 % 1026,0 hPa 0,0 l/m 0 min 0 min 148 W/m 6,4 km/h (2 Bft) 95,74 %
04.04.2021 12:28 6,5 C 6,7 C 4,5 C 78 % 1026,0 hPa 0,0 l/m 0 min 0 min 154 W/m 9,7 km/h (2 Bft) 95,65 %
04.04.2021 12:30 6,5 C 6,7 C 4,5 C 77 % 1026,1 hPa 0,0 l/m 0 min 0 min 163 W/m 6,4 km/h (2 Bft) 95,74 %
04.04.2021 12:32 6,6 C 6,7 C 4,5 C 77 % 1026,0 hPa 0,0 l/m 0 min 0 min 171 W/m 3,2 km/h (1 Bft) 97,87 %
04.04.2021 12:34 6,6 C 7,2 C 4,5 C 77 % 1026,0 hPa 0,0 l/m 0 min 0 min 175 W/m 6,4 km/h (2 Bft) 97,87 %
04.04.2021 12:36 6,6 C 6,7 C 4,5 C 77 % 1025,9 hPa 0,0 l/m 0 min 0 min 175 W/m 9,7 km/h (2 Bft) 98,11 %
04.04.2021 12:38 6,7 C 7,2 C 4,5 C 77 % 1025,9 hPa 0,0 l/m 0 min 0 min 172 W/m 9,7 km/h (2 Bft) 95,65 %
04.04.2021 12:40 6,7 C 7,2 C 4,5 C 77 % 1025,9 hPa 0,0 l/m 0 min 0 min 173 W/m 9,7 km/h (2 Bft) 97,87 %
04.04.2021 12:42 6,7 C 7,2 C 4,5 C 77 % 1025,9 hPa 0,0 l/m 0 min 0 min 171 W/m 12,9 km/h (3 Bft) 97,92 %
04.04.2021 12:44 6,8 C 7,2 C 4,5 C 77 % 1026,0 hPa 0,0 l/m 0 min 0 min 170 W/m 12,9 km/h (3 Bft) 97,87 %
04.04.2021 12:46 6,8 C 7,2 C 4,5 C 77 % 1025,9 hPa 0,0 l/m 0 min 0 min 173 W/m 9,7 km/h (2 Bft) 97,87 %
04.04.2021 12:48 6,8 C 7,2 C 5,0 C 76 % 1025,9 hPa 0,0 l/m 0 min 0 min 176 W/m 6,4 km/h (2 Bft) 97,87 %
04.04.2021 12:50 6,8 C 7,2 C 5,0 C 76 % 1025,9 hPa 0,0 l/m 0 min 0 min 175 W/m 12,9 km/h (3 Bft) 95,65 %
04.04.2021 12:52 6,8 C 7,8 C 5,0 C 76 % 1025,9 hPa 0,0 l/m 0 min 0 min 172 W/m 9,7 km/h (2 Bft) 97,87 %
04.04.2021 12:54 6,9 C 7,2 C 5,0 C 76 % 1025,8 hPa 0,0 l/m 0 min 0 min 171 W/m 6,4 km/h (2 Bft) 100,00 %
04.04.2021 12:56 6,9 C 7,2 C 4,5 C 76 % 1025,7 hPa 0,0 l/m 0 min 0 min 171 W/m 3,2 km/h (1 Bft) 97,87 %
04.04.2021 12:58 6,9 C 7,2 C 5,0 C 76 % 1025,7 hPa 0,0 l/m 0 min 0 min 171 W/m 9,7 km/h (2 Bft) 100,00 %
04.04.2021 13:00 6,9 C 7,8 C 5,0 C 76 % 1025,7 hPa 0,0 l/m 0 min 0 min 172 W/m 6,4 km/h (2 Bft) 100,00 %
04.04.2021 13:02 6,9 C 7,8 C 5,0 C 76 % 1025,8 hPa 0,0 l/m 0 min 0 min 175 W/m 9,7 km/h (2 Bft) 97,83 %
04.04.2021 13:04 6,9 C 7,8 C 5,0 C 76 % 1025,7 hPa 0,0 l/m 0 min 0 min 179 W/m 12,9 km/h (3 Bft) 100,00 %
04.04.2021 13:06 6,9 C 7,8 C 5,0 C 76 % 1025,7 hPa 0,0 l/m 0 min 0 min 185 W/m 12,9 km/h (3 Bft) 100,00 %
04.04.2021 13:08 7,0 C 7,8 C 5,0 C 76 % 1025,6 hPa 0,0 l/m 0 min 0 min 187 W/m 12,9 km/h (3 Bft) 100,00 %
04.04.2021 13:10 7,0 C 7,8 C 5,0 C 76 % 1025,6 hPa 0,0 l/m 0 min 0 min 188 W/m 9,7 km/h (2 Bft) 95,74 %
04.04.2021 13:12 7,0 C 7,8 C 5,0 C 76 % 1025,6 hPa 0,0 l/m 0 min 0 min 188 W/m 9,7 km/h (2 Bft) 97,87 %
04.04.2021 13:14 7,0 C 7,2 C 5,0 C 76 % 1025,5 hPa 0,0 l/m 0 min 0 min 184 W/m 6,4 km/h (2 Bft) 97,83 %
04.04.2021 13:16 7,0 C 7,8 C 5,0 C 76 % 1025,5 hPa 0,0 l/m 0 min 0 min 183 W/m 6,4 km/h (2 Bft) 95,74 %
04.04.2021 13:18 7,1 C 7,8 C 5,0 C 76 % 1025,4 hPa 0,0 l/m 0 min 0 min 188 W/m 6,4 km/h (2 Bft) 97,92 %
04.04.2021 13:20 7,1 C 7,2 C 5,0 C 75 % 1025,4 hPa 0,0 l/m 0 min 0 min 193 W/m 6,4 km/h (2 Bft) 97,87 %
04.04.2021 13:22 7,1 C 7,8 C 5,0 C 75 % 1025,4 hPa 0,0 l/m 0 min 0 min 200 W/m 6,4 km/h (2 Bft) 97,87 %
04.04.2021 13:24 7,2 C 7,8 C 5,0 C 76 % 1025,4 hPa 0,0 l/m 0 min 0 min 209 W/m 6,4 km/h (2 Bft) 97,87 %
04.04.2021 13:26 7,2 C 7,2 C 5,0 C 75 % 1025,3 hPa 0,0 l/m 0 min 0 min 221 W/m 3,2 km/h (1 Bft) 97,83 %
04.04.2021 13:28 7,2 C 7,8 C 5,0 C 75 % 1025,3 hPa 0,0 l/m 0 min 0 min 231 W/m 6,4 km/h (2 Bft) 95,74 %
04.04.2021 13:30 7,2 C 7,8 C 5,0 C 75 % 1025,3 hPa 0,0 l/m 0 min 0 min 240 W/m 3,2 km/h (1 Bft) 95,74 %
04.04.2021 13:32 7,2 C 7,8 C 5,6 C 75 % 1025,3 hPa 0,0 l/m 0 min 0 min 245 W/m 12,9 km/h (3 Bft) 95,83 %
04.04.2021 13:34 7,3 C 7,8 C 5,6 C 75 % 1025,2 hPa 0,0 l/m 0 min 0 min 252 W/m 9,7 km/h (2 Bft) 89,36 %
04.04.2021 13:36 7,3 C 7,8 C 5,6 C 75 % 1025,2 hPa 0,0 l/m 0 min 0 min 254 W/m 9,7 km/h (2 Bft) 97,83 %
04.04.2021 13:38 7,3 C 7,8 C 5,6 C 75 % 1025,2 hPa 0,0 l/m 0 min 0 min 251 W/m 6,4 km/h (2 Bft) 97,87 %
04.04.2021 13:40 7,3 C 7,8 C 5,6 C 75 % 1025,2 hPa 0,0 l/m 0 min 0 min 246 W/m 9,7 km/h (2 Bft) 95,74 %
04.04.2021 13:42 7,4 C 8,3 C 5,6 C 75 % 1025,1 hPa 0,0 l/m 0 min 0 min 236 W/m 6,4 km/h (2 Bft) 97,87 %
04.04.2021 13:44 7,4 C 8,3 C 5,6 C 75 % 1025,1 hPa 0,0 l/m 0 min 0 min 231 W/m 6,4 km/h (2 Bft) 97,87 %
04.04.2021 13:46 7,5 C 8,3 C 5,6 C 75 % 1025,1 hPa 0,0 l/m 0 min 0 min 230 W/m 12,9 km/h (3 Bft) 97,87 %
04.04.2021 13:48 7,5 C 8,3 C 5,6 C 74 % 1025,1 hPa 0,0 l/m 0 min 0 min 231 W/m 9,7 km/h (2 Bft) 97,83 %
04.04.2021 13:50 7,5 C 8,3 C 5,6 C 75 % 1025,2 hPa 0,0 l/m 0 min 0 min 235 W/m 9,7 km/h (2 Bft) 95,74 %
04.04.2021 13:52 7,5 C 8,3 C 5,6 C 75 % 1025,1 hPa 0,0 l/m 0 min 0 min 240 W/m 3,2 km/h (1 Bft) 100,00 %
04.04.2021 13:54 7,6 C 8,3 C 5,6 C 74 % 1025,1 hPa 0,0 l/m 0 min 0 min 242 W/m 12,9 km/h (3 Bft) 100,00 %
04.04.2021 13:56 7,6 C 8,3 C 6,1 C 74 % 1025,1 hPa 0,0 l/m 0 min 0 min 238 W/m 9,7 km/h (2 Bft) 100,00 %
04.04.2021 13:58 7,6 C 8,3 C 5,6 C 74 % 1025,1 hPa 0,0 l/m 0 min 0 min 235 W/m 12,9 km/h (3 Bft) 97,87 %
04.04.2021 14:00 7,6 C 8,3 C 6,1 C 74 % 1025,0 hPa 0,0 l/m 0 min 0 min 229 W/m 12,9 km/h (3 Bft) 100,00 %
04.04.2021 14:02 7,6 C 7,8 C 5,6 C 74 % 1025,0 hPa 0,0 l/m 0 min 0 min 221 W/m 9,7 km/h (2 Bft) 97,96 %
04.04.2021 14:04 7,6 C 8,3 C 5,6 C 74 % 1025,0 hPa 0,0 l/m 0 min 0 min 214 W/m 3,2 km/h (1 Bft) 100,00 %
04.04.2021 14:06 7,6 C 8,3 C 5,6 C 75 % 1025,0 hPa 0,0 l/m 0 min 0 min 218 W/m 12,9 km/h (3 Bft) 100,00 %
04.04.2021 14:08 7,6 C 8,3 C 6,1 C 74 % 1025,0 hPa 0,0 l/m 0 min 0 min 231 W/m 16,1 km/h (3 Bft) 97,92 %
04.04.2021 14:10 7,6 C 8,3 C 6,1 C 74 % 1024,9 hPa 0,0 l/m 0 min 0 min 248 W/m 12,9 km/h (3 Bft) 100,00 %
04.04.2021 14:12 7,6 C 8,3 C 6,1 C 74 % 1024,9 hPa 0,0 l/m 0 min 0 min 259 W/m 9,7 km/h (2 Bft) 100,00 %
04.04.2021 14:14 7,6 C 8,3 C 6,1 C 74 % 1024,9 hPa 0,0 l/m 0 min 0 min 272 W/m 12,9 km/h (3 Bft) 97,87 %
04.04.2021 14:16 7,7 C 8,9 C 6,1 C 74 % 1024,9 hPa 0,0 l/m 0 min 0 min 287 W/m 9,7 km/h (2 Bft) 97,87 %
04.04.2021 14:18 7,7 C 8,9 C 6,1 C 74 % 1024,8 hPa 0,0 l/m 0 min 0 min 299 W/m 9,7 km/h (2 Bft) 97,87 %
04.04.2021 14:20 7,8 C 8,9 C 6,1 C 74 % 1024,7 hPa 0,0 l/m 0 min 0 min 306 W/m 9,7 km/h (2 Bft) 95,74 %
04.04.2021 14:22 7,8 C 8,9 C 6,1 C 74 % 1024,7 hPa 0,0 l/m 0 min 0 min 311 W/m 12,9 km/h (3 Bft) 97,87 %
04.04.2021 14:24 7,8 C 9,4 C 6,7 C 74 % 1024,7 hPa 0,0 l/m 0 min 0 min 298 W/m 9,7 km/h (2 Bft) 97,83 %
04.04.2021 14:26 7,9 C 9,4 C 6,7 C 74 % 1024,7 hPa 0,0 l/m 0 min 0 min 277 W/m 6,4 km/h (2 Bft) 91,49 %
04.04.2021 14:28 7,9 C 9,4 C 6,7 C 74 % 1024,6 hPa 0,0 l/m 0 min 0 min 270 W/m 6,4 km/h (2 Bft) 95,74 %
04.04.2021 14:30 7,9 C 8,9 C 6,7 C 73 % 1024,6 hPa 0,0 l/m 0 min 0 min 266 W/m 6,4 km/h (2 Bft) 95,74 %
04.04.2021 14:32 7,9 C 8,9 C 6,7 C 73 % 1024,5 hPa 0,0 l/m 0 min 0 min 259 W/m 9,7 km/h (2 Bft) 100,00 %
04.04.2021 14:34 7,9 C 8,9 C 6,7 C 73 % 1024,4 hPa 0,0 l/m 0 min 0 min 266 W/m 3,2 km/h (1 Bft) 100,00 %
04.04.2021 14:36 7,9 C 8,9 C 6,7 C 73 % 1024,4 hPa 0,0 l/m 0 min 0 min 276 W/m 6,4 km/h (2 Bft) 100,00 %
04.04.2021 14:38 7,9 C 8,9 C 6,7 C 72 % 1024,4 hPa 0,0 l/m 0 min 0 min 267 W/m 6,4 km/h (2 Bft) 97,87 %
04.04.2021 14:40 7,9 C 8,9 C 6,7 C 72 % 1024,4 hPa 0,0 l/m 0 min 0 min 248 W/m 9,7 km/h (2 Bft) 100,00 %
04.04.2021 14:42 8,0 C 8,9 C 6,7 C 72 % 1024,4 hPa 0,0 l/m 0 min 0 min 241 W/m 6,4 km/h (2 Bft) 97,87 %
04.04.2021 14:44 8,0 C 8,9 C 6,7 C 72 % 1024,3 hPa 0,0 l/m 0 min 0 min 243 W/m 6,4 km/h (2 Bft) 97,87 %
04.04.2021 14:46 8,0 C 8,9 C 6,7 C 73 % 1024,4 hPa 0,0 l/m 0 min 0 min 243 W/m 6,4 km/h (2 Bft) 100,00 %
04.04.2021 14:48 8,1 C 8,9 C 6,7 C 73 % 1024,3 hPa 0,0 l/m 0 min 0 min 248 W/m 9,7 km/h (2 Bft) 97,87 %
04.04.2021 14:50 8,1 C 8,9 C 6,7 C 72 % 1024,3 hPa 0,0 l/m 0 min 0 min 261 W/m 9,7 km/h (2 Bft) 100,00 %
04.04.2021 14:52 8,1 C 8,9 C 6,7 C 72 % 1024,3 hPa 0,0 l/m 0 min 0 min 281 W/m 6,4 km/h (2 Bft) 100,00 %
04.04.2021 14:54 8,1 C 8,9 C 6,7 C 72 % 1024,2 hPa 0,0 l/m 0 min 0 min 312 W/m 6,4 km/h (2 Bft) 100,00 %
04.04.2021 14:56 8,2 C 8,9 C 6,7 C 72 % 1024,2 hPa 0,0 l/m 0 min 0 min 296 W/m 6,4 km/h (2 Bft) 100,00 %
04.04.2021 14:58 8,3 C 8,9 C 6,7 C 72 % 1024,2 hPa 0,0 l/m 0 min 0 min 264 W/m 6,4 km/h (2 Bft) 97,83 %
04.04.2021 15:00 8,3 C 8,9 C 6,7 C 71 % 1024,1 hPa 0,0 l/m 0 min 0 min 247 W/m 3,2 km/h (1 Bft) 100,00 %
04.04.2021 15:02 8,3 C 8,9 C 6,1 C 71 % 1024,1 hPa 0,0 l/m 0 min 0 min 242 W/m 9,7 km/h (2 Bft) 100,00 %
04.04.2021 15:04 8,3 C 8,9 C 6,1 C 72 % 1024,1 hPa 0,0 l/m 0 min 0 min 244 W/m 9,7 km/h (2 Bft) 100,00 %
04.04.2021 15:06 8,3 C 8,9 C 6,1 C 72 % 1024,1 hPa 0,0 l/m 0 min 0 min 259 W/m 16,1 km/h (3 Bft) 97,87 %
04.04.2021 15:08 8,3 C 8,9 C 6,1 C 72 % 1024,0 hPa 0,0 l/m 0 min 0 min 290 W/m 9,7 km/h (2 Bft) 93,62 %
04.04.2021 15:10 8,3 C 9,4 C 6,7 C 72 % 1024,0 hPa 0,0 l/m 0 min 0 min 300 W/m 16,1 km/h (3 Bft) 95,65 %
04.04.2021 15:12 8,4 C 9,4 C 6,7 C 72 % 1024,0 hPa 0,0 l/m 0 min 0 min 291 W/m 12,9 km/h (3 Bft) 97,87 %
04.04.2021 15:14 8,4 C 9,4 C 6,7 C 71 % 1024,0 hPa 0,0 l/m 0 min 0 min 272 W/m 6,4 km/h (2 Bft) 97,87 %
04.04.2021 15:16 8,4 C 8,9 C 6,7 C 71 % 1023,9 hPa 0,0 l/m 0 min 0 min 249 W/m 16,1 km/h (3 Bft) 95,74 %
04.04.2021 15:18 8,4 C 8,9 C 6,7 C 71 % 1023,9 hPa 0,0 l/m 0 min 0 min 242 W/m 6,4 km/h (2 Bft) 95,74 %
04.04.2021 15:20 8,4 C 8,9 C 6,7 C 71 % 1023,9 hPa 0,0 l/m 0 min 0 min 242 W/m 16,1 km/h (3 Bft) 95,74 %
04.04.2021 15:22 8,4 C 8,9 C 6,7 C 71 % 1023,9 hPa 0,0 l/m 0 min 0 min 238 W/m 9,7 km/h (2 Bft) 95,65 %
04.04.2021 15:24 8,4 C 8,9 C 6,7 C 70 % 1023,9 hPa 0,0 l/m 0 min 0 min 236 W/m 6,4 km/h (2 Bft) 95,74 %
04.04.2021 15:26 8,4 C 9,4 C 6,7 C 71 % 1023,8 hPa 0,0 l/m 0 min 0 min 244 W/m 12,9 km/h (3 Bft) 95,74 %
04.04.2021 15:28 8,4 C 9,4 C 6,7 C 71 % 1023,8 hPa 0,0 l/m 0 min 0 min 252 W/m 12,9 km/h (3 Bft) 95,74 %
04.04.2021 15:30 8,5 C 8,9 C 6,7 C 71 % 1023,8 hPa 0,0 l/m 0 min 0 min 258 W/m 6,4 km/h (2 Bft) 95,74 %
04.04.2021 15:32 8,5 C 9,4 C 6,7 C 71 % 1023,8 hPa 0,0 l/m 0 min 0 min 265 W/m 6,4 km/h (2 Bft) 94,44 %
04.04.2021 15:34 8,5 C 9,4 C 6,7 C 71 % 1023,8 hPa 0,0 l/m 0 min 0 min 265 W/m 6,4 km/h (2 Bft) 95,74 %
04.04.2021 15:36 8,6 C 9,4 C 7,3 C 70 % 1023,7 hPa 0,0 l/m 0 min 0 min 259 W/m 6,4 km/h (2 Bft) 91,30 %
04.04.2021 15:38 8,6 C 9,4 C 7,3 C 70 % 1023,7 hPa 0,0 l/m 0 min 0 min 250 W/m 6,4 km/h (2 Bft) 93,62 %
04.04.2021 15:40 8,7 C 9,4 C 7,3 C 71 % 1023,7 hPa 0,0 l/m 0 min 0 min 237 W/m 9,7 km/h (2 Bft) 91,49 %
04.04.2021 15:42 8,8 C 9,4 C 7,3 C 71 % 1023,6 hPa 0,0 l/m 0 min 0 min 230 W/m 6,4 km/h (2 Bft) 93,62 %
04.04.2021 15:44 8,8 C 9,4 C 7,3 C 71 % 1023,6 hPa 0,0 l/m 0 min 0 min 224 W/m 9,7 km/h (2 Bft) 91,49 %
04.04.2021 15:46 8,8 C 9,4 C 7,3 C 71 % 1023,5 hPa 0,0 l/m 0 min 0 min 224 W/m 9,7 km/h (2 Bft) 93,62 %
04.04.2021 15:48 8,8 C 9,4 C 6,7 C 70 % 1023,5 hPa 0,0 l/m 0 min 0 min 221 W/m 12,9 km/h (3 Bft) 91,30 %
04.04.2021 15:50 8,8 C 8,9 C 6,7 C 70 % 1023,5 hPa 0,0 l/m 0 min 0 min 215 W/m 9,7 km/h (2 Bft) 91,49 %
04.04.2021 15:52 8,8 C 9,4 C 6,7 C 70 % 1023,4 hPa 0,0 l/m 0 min 0 min 211 W/m 6,4 km/h (2 Bft) 93,62 %
04.04.2021 15:54 8,8 C 8,9 C 6,7 C 70 % 1023,4 hPa 0,0 l/m 0 min 0 min 214 W/m 6,4 km/h (2 Bft) 93,62 %
04.04.2021 15:56 8,8 C 8,9 C 6,7 C 70 % 1023,4 hPa 0,0 l/m 0 min 0 min 223 W/m 6,4 km/h (2 Bft) 100,00 %
04.04.2021 15:58 8,7 C 8,9 C 6,7 C 70 % 1023,3 hPa 0,0 l/m 0 min 0 min 239 W/m 6,4 km/h (2 Bft) 97,87 %
04.04.2021 16:00 8,6 C 8,9 C 6,7 C 70 % 1023,3 hPa 0,0 l/m 0 min 0 min 246 W/m 6,4 km/h (2 Bft) 93,48 %
04.04.2021 16:02 8,6 C 8,9 C 6,7 C 69 % 1023,2 hPa 0,0 l/m 0 min 0 min 244 W/m 16,1 km/h (3 Bft) 93,75 %
04.04.2021 16:04 8,6 C 9,4 C 6,7 C 70 % 1023,2 hPa 0,0 l/m 0 min 0 min 243 W/m 6,4 km/h (2 Bft) 95,74 %
04.04.2021 16:06 8,7 C 9,4 C 6,7 C 70 % 1023,2 hPa 0,0 l/m 0 min 0 min 246 W/m 12,9 km/h (3 Bft) 93,62 %
04.04.2021 16:08 8,7 C 9,4 C 6,7 C 70 % 1023,2 hPa 0,0 l/m 0 min 0 min 233 W/m 6,4 km/h (2 Bft) 95,74 %
04.04.2021 16:10 8,7 C 9,4 C 6,7 C 71 % 1023,2 hPa 0,0 l/m 0 min 0 min 228 W/m 9,7 km/h (2 Bft) 95,74 %
04.04.2021 16:12 8,7 C 9,4 C 6,7 C 71 % 1023,1 hPa 0,0 l/m 0 min 0 min 234 W/m 12,9 km/h (3 Bft) 93,48 %
04.04.2021 16:14 8,8 C 9,4 C 6,7 C 71 % 1023,1 hPa 0,0 l/m 0 min 0 min 254 W/m 9,7 km/h (2 Bft) 91,49 %
04.04.2021 16:16 8,8 C 9,4 C 6,7 C 70 % 1023,0 hPa 0,0 l/m 0 min 0 min 271 W/m 6,4 km/h (2 Bft) 93,62 %
04.04.2021 16:18 8,8 C 9,4 C 6,7 C 70 % 1023,0 hPa 0,0 l/m 2 min 0 min 281 W/m 9,7 km/h (2 Bft) 95,74 %
04.04.2021 16:20 8,9 C 10,0 C 6,7 C 70 % 1023,0 hPa 0,0 l/m 2 min 0 min 275 W/m 12,9 km/h (3 Bft) 100,00 %
04.04.2021 16:22 8,9 C 10,0 C 6,7 C 70 % 1023,0 hPa 0,0 l/m 2 min 0 min 296 W/m 12,9 km/h (3 Bft) 98,00 %
04.04.2021 16:24 8,8 C 10,0 C 6,7 C 69 % 1022,9 hPa 0,0 l/m 2 min 0 min 301 W/m 12,9 km/h (3 Bft) 100,00 %
04.04.2021 16:26 8,8 C 10,0 C 6,7 C 69 % 1022,9 hPa 0,0 l/m 2 min 0 min 267 W/m 12,9 km/h (3 Bft) 97,87 %
04.04.2021 16:28 8,8 C 9,4 C 6,7 C 69 % 1022,8 hPa 0,0 l/m 0 min 0 min 248 W/m 9,7 km/h (2 Bft) 100,00 %
04.04.2021 16:30 8,8 C 9,4 C 6,7 C 69 % 1022,7 hPa 0,0 l/m 0 min 0 min 241 W/m 9,7 km/h (2 Bft) 100,00 %
04.04.2021 16:32 8,8 C 9,4 C 6,7 C 69 % 1022,7 hPa 0,0 l/m 0 min 0 min 246 W/m 9,7 km/h (2 Bft) 100,00 %
04.04.2021 16:34 8,7 C 9,4 C 6,7 C 69 % 1022,7 hPa 0,0 l/m 0 min 0 min 258 W/m 6,4 km/h (2 Bft) 100,00 %
04.04.2021 16:36 8,8 C 10,0 C 7,3 C 69 % 1022,6 hPa 0,0 l/m 2 min 0 min 272 W/m 3,2 km/h (1 Bft) 100,00 %
04.04.2021 16:38 8,8 C 10,0 C 7,3 C 70 % 1022,6 hPa 0,0 l/m 2 min 0 min 283 W/m 12,9 km/h (3 Bft) 97,87 %
04.04.2021 16:40 8,9 C 11,1 C 7,3 C 71 % 1022,6 hPa 0,0 l/m 2 min 0 min 361 W/m 6,4 km/h (2 Bft) 100,00 %
04.04.2021 16:42 9,0 C 11,7 C 7,3 C 70 % 1022,5 hPa 0,0 l/m 2 min 0 min 424 W/m 6,4 km/h (2 Bft) 100,00 %
04.04.2021 16:44 9,0 C 11,7 C 7,3 C 69 % 1022,5 hPa 0,0 l/m 2 min 0 min 378 W/m 12,9 km/h (3 Bft) 97,87 %
04.04.2021 16:46 9,1 C 11,7 C 7,3 C 69 % 1022,4 hPa 0,0 l/m 2 min 0 min 329 W/m 6,4 km/h (2 Bft) 100,00 %
04.04.2021 16:48 9,1 C 11,7 C 7,8 C 69 % 1022,4 hPa 0,0 l/m 2 min 0 min 340 W/m 9,7 km/h (2 Bft) 100,00 %
04.04.2021 16:50 9,2 C 12,2 C 7,8 C 69 % 1022,3 hPa 0,0 l/m 2 min 0 min 312 W/m 6,4 km/h (2 Bft) 100,00 %
04.04.2021 16:52 9,3 C 13,3 C 7,8 C 69 % 1022,2 hPa 0,0 l/m 2 min 0 min 429 W/m 12,9 km/h (3 Bft) 100,00 %
04.04.2021 16:54 9,4 C 13,3 C 7,8 C 68 % 1022,2 hPa 0,0 l/m 2 min 0 min 417 W/m 12,9 km/h (3 Bft) 100,00 %
04.04.2021 16:56 9,4 C 12,2 C 7,8 C 68 % 1022,1 hPa 0,0 l/m 2 min 0 min 340 W/m 19,3 km/h (3 Bft) 100,00 %
04.04.2021 16:58 9,4 C 11,7 C 7,8 C 68 % 1022,1 hPa 0,0 l/m 2 min 0 min 297 W/m 19,3 km/h (3 Bft) 100,00 %
04.04.2021 17:00 9,4 C 11,7 C 7,8 C 68 % 1022,1 hPa 0,0 l/m 2 min 0 min 308 W/m 9,7 km/h (2 Bft) 100,00 %
04.04.2021 17:02 9,5 C 11,7 C 7,8 C 68 % 1022,1 hPa 0,0 l/m 2 min 0 min 352 W/m 12,9 km/h (3 Bft) 100,00 %
04.04.2021 17:04 9,5 C 11,7 C 7,8 C 68 % 1022,1 hPa 0,0 l/m 2 min 0 min 316 W/m 6,4 km/h (2 Bft) 100,00 %
04.04.2021 17:06 9,6 C 11,1 C 7,8 C 68 % 1022,1 hPa 0,0 l/m 2 min 0 min 276 W/m 12,9 km/h (3 Bft) 100,00 %
04.04.2021 17:08 9,6 C 10,6 C 7,3 C 68 % 1022,0 hPa 0,0 l/m 2 min 0 min 248 W/m 9,7 km/h (2 Bft) 100,00 %
04.04.2021 17:10 9,6 C 10,6 C 7,3 C 67 % 1022,0 hPa 0,0 l/m 0 min 0 min 222 W/m 6,4 km/h (2 Bft) 95,65 %
04.04.2021 17:12 9,6 C 10,6 C 7,3 C 68 % 1021,9 hPa 0,0 l/m 0 min 0 min 215 W/m 3,2 km/h (1 Bft) 97,87 %
04.04.2021 17:14 9,6 C 10,0 C 7,3 C 68 % 1021,9 hPa 0,0 l/m 2 min 0 min 225 W/m 6,4 km/h (2 Bft) 100,00 %
04.04.2021 17:16 9,6 C 10,6 C 7,3 C 68 % 1021,8 hPa 0,0 l/m 2 min 0 min 229 W/m 9,7 km/h (2 Bft) 100,00 %
04.04.2021 17:18 9,6 C 10,0 C 7,3 C 67 % 1021,8 hPa 0,0 l/m 2 min 0 min 245 W/m 9,7 km/h (2 Bft) 100,00 %
04.04.2021 17:20 9,5 C 10,6 C 7,3 C 68 % 1021,8 hPa 0,0 l/m 2 min 0 min 252 W/m 9,7 km/h (2 Bft) 100,00 %
04.04.2021 17:22 9,5 C 10,6 C 7,3 C 68 % 1021,7 hPa 0,0 l/m 2 min 0 min 246 W/m 6,4 km/h (2 Bft) 100,00 %
04.04.2021 17:24 9,5 C 10,6 C 7,3 C 68 % 1021,7 hPa 0,0 l/m 2 min 0 min 221 W/m 9,7 km/h (2 Bft) 100,00 %
04.04.2021 17:26 9,5 C 10,6 C 7,3 C 68 % 1021,7 hPa 0,0 l/m 2 min 0 min 214 W/m 12,9 km/h (3 Bft) 100,00 %
04.04.2021 17:28 9,5 C 10,6 C 7,3 C 68 % 1021,7 hPa 0,0 l/m 2 min 0 min 243 W/m 6,4 km/h (2 Bft) 100,00 %
04.04.2021 17:30 9,6 C 12,2 C 7,3 C 68 % 1021,7 hPa 0,0 l/m 2 min 0 min 364 W/m 6,4 km/h (2 Bft) 100,00 %
04.04.2021 17:32 9,6 C 14,4 C 7,3 C 68 % 1021,6 hPa 0,0 l/m 2 min 0 min 483 W/m 6,4 km/h (2 Bft) 97,87 %
04.04.2021 17:34 9,8 C 15,0 C 7,8 C 69 % 1021,6 hPa 0,0 l/m 2 min 0 min 476 W/m 3,2 km/h (1 Bft) 100,00 %
04.04.2021 17:36 10,0 C 15,6 C 7,8 C 68 % 1021,6 hPa 0,0 l/m 2 min 0 min 472 W/m 6,4 km/h (2 Bft) 100,00 %
04.04.2021 17:38 10,1 C 15,6 C 7,8 C 67 % 1021,5 hPa 0,0 l/m 2 min 0 min 457 W/m 3,2 km/h (1 Bft) 97,87 %
04.04.2021 17:40 10,3 C 16,1 C 7,8 C 68 % 1021,5 hPa 0,0 l/m 2 min 0 min 426 W/m 3,2 km/h (1 Bft) 100,00 %
04.04.2021 17:42 10,4 C 16,1 C 8,4 C 67 % 1021,5 hPa 0,0 l/m 2 min 0 min 391 W/m 6,4 km/h (2 Bft) 100,00 %
04.04.2021 17:44 10,6 C 16,1 C 8,4 C 66 % 1021,4 hPa 0,0 l/m 2 min 0 min 365 W/m 6,4 km/h (2 Bft) 100,00 %
04.04.2021 17:46 10,6 C 14,4 C 7,8 C 66 % 1021,4 hPa 0,0 l/m 2 min 0 min 224 W/m 9,7 km/h (2 Bft) 100,00 %
04.04.2021 17:48 10,6 C 13,3 C 7,8 C 65 % 1021,4 hPa 0,0 l/m 2 min 0 min 187 W/m 9,7 km/h (2 Bft) 100,00 %
04.04.2021 17:50 10,6 C 13,3 C 7,8 C 65 % 1021,4 hPa 0,0 l/m 2 min 0 min 321 W/m 12,9 km/h (3 Bft) 97,87 %
04.04.2021 17:52 10,5 C 13,9 C 7,8 C 65 % 1021,4 hPa 0,0 l/m 2 min 0 min 330 W/m 12,9 km/h (3 Bft) 100,00 %
04.04.2021 17:54 10,4 C 13,9 C 7,3 C 65 % 1021,4 hPa 0,0 l/m 2 min 0 min 338 W/m 6,4 km/h (2 Bft) 100,00 %
04.04.2021 17:56 10,3 C 12,8 C 7,3 C 65 % 1021,4 hPa 0,0 l/m 2 min 0 min 252 W/m 16,1 km/h (3 Bft) 100,00 %
04.04.2021 17:58 10,2 C 12,2 C 7,3 C 65 % 1021,3 hPa 0,0 l/m 2 min 0 min 189 W/m 12,9 km/h (3 Bft) 95,65 %
04.04.2021 18:00 10,1 C 13,3 C 7,3 C 65 % 1021,3 hPa 0,0 l/m 2 min 0 min 305 W/m 3,2 km/h (1 Bft) 100,00 %
04.04.2021 18:02 10,1 C 14,4 C 7,3 C 66 % 1021,3 hPa 0,0 l/m 2 min 0 min 299 W/m 6,4 km/h (2 Bft) 97,92 %
04.04.2021 18:04 10,2 C 13,9 C 7,3 C 66 % 1021,2 hPa 0,0 l/m 2 min 0 min 273 W/m 9,7 km/h (2 Bft) 100,00 %
04.04.2021 18:08 10,1 C 11,1 C 7,3 C 66 % 1021,3 hPa 0,0 l/m 0 min 0 min 144 W/m 12,9 km/h (3 Bft) 96,39 %
04.04.2021 18:10 10,0 C 11,1 C 7,3 C 66 % 1021,4 hPa 0,0 l/m 2 min 0 min 178 W/m 16,1 km/h (3 Bft) 95,65 %
04.04.2021 18:12 10,0 C 12,2 C 7,3 C 67 % 1021,3 hPa 0,0 l/m 2 min 0 min 237 W/m 3,2 km/h (1 Bft) 93,62 %
04.04.2021 18:14 10,0 C 12,8 C 7,3 C 67 % 1021,2 hPa 0,0 l/m 2 min 0 min 243 W/m 3,2 km/h (1 Bft) 93,62 %
04.04.2021 18:16 10,0 C 13,3 C 7,3 C 67 % 1021,1 hPa 0,0 l/m 2 min 0 min 238 W/m 6,4 km/h (2 Bft) 95,74 %
04.04.2021 18:18 10,0 C 13,3 C 7,3 C 67 % 1021,1 hPa 0,0 l/m 2 min 0 min 232 W/m 6,4 km/h (2 Bft) 95,74 %
04.04.2021 18:20 10,0 C 12,8 C 7,3 C 67 % 1021,0 hPa 0,0 l/m 2 min 0 min 222 W/m 3,2 km/h (1 Bft) 95,74 %
04.04.2021 18:22 10,0 C 13,3 C 7,3 C 67 % 1021,0 hPa 0,0 l/m 2 min 0 min 213 W/m 6,4 km/h (2 Bft) 93,48 %
04.04.2021 18:24 10,0 C 13,3 C 7,3 C 67 % 1020,9 hPa 0,0 l/m 2 min 0 min 202 W/m 9,7 km/h (2 Bft) 95,74 %
04.04.2021 18:26 10,0 C 13,3 C 7,3 C 67 % 1021,0 hPa 0,0 l/m 2 min 0 min 194 W/m 3,2 km/h (1 Bft) 95,74 %
04.04.2021 18:28 10,0 C 12,8 C 7,3 C 66 % 1021,0 hPa 0,0 l/m 2 min 0 min 185 W/m 16,1 km/h (3 Bft) 95,74 %
04.04.2021 18:30 10,0 C 12,8 C 7,3 C 66 % 1021,0 hPa 0,0 l/m 2 min 0 min 183 W/m 12,9 km/h (3 Bft) 93,62 %
04.04.2021 18:32 10,0 C 12,8 C 7,3 C 66 % 1021,0 hPa 0,0 l/m 2 min 0 min 176 W/m 6,4 km/h (2 Bft) 95,74 %
04.04.2021 18:34 9,9 C 12,8 C 7,3 C 66 % 1021,0 hPa 0,0 l/m 2 min 0 min 172 W/m 6,4 km/h (2 Bft) 91,30 %
04.04.2021 18:36 9,8 C 12,2 C 7,3 C 66 % 1020,9 hPa 0,0 l/m 2 min 0 min 170 W/m 3,2 km/h (1 Bft) 87,50 %
04.04.2021 18:38 9,8 C 12,2 C 7,3 C 66 % 1020,8 hPa 0,0 l/m 2 min 0 min 158 W/m 9,7 km/h (2 Bft) 95,74 %
04.04.2021 18:40 9,8 C 12,2 C 7,3 C 67 % 1020,8 hPa 0,0 l/m 2 min 0 min 151 W/m 6,4 km/h (2 Bft) 93,62 %
04.04.2021 18:42 9,8 C 12,2 C 7,3 C 67 % 1020,8 hPa 0,0 l/m 2 min 0 min 143 W/m 9,7 km/h (2 Bft) 95,74 %
04.04.2021 18:44 9,8 C 11,7 C 7,3 C 67 % 1020,8 hPa 0,0 l/m 2 min 0 min 139 W/m 6,4 km/h (2 Bft) 95,74 %
04.04.2021 18:46 9,8 C 11,7 C 7,3 C 67 % 1020,7 hPa 0,0 l/m 2 min 0 min 132 W/m 6,4 km/h (2 Bft) 95,65 %
04.04.2021 18:48 9,8 C 11,7 C 7,3 C 67 % 1020,8 hPa 0,0 l/m 2 min 0 min 126 W/m 12,9 km/h (3 Bft) 97,87 %
04.04.2021 18:50 9,8 C 11,7 C 7,3 C 67 % 1020,8 hPa 0,0 l/m 2 min 0 min 118 W/m 3,2 km/h (1 Bft) 97,87 %
04.04.2021 18:52 9,8 C 11,1 C 7,3 C 67 % 1020,8 hPa 0,0 l/m 2 min 0 min 112 W/m 6,4 km/h (2 Bft) 95,74 %
04.04.2021 18:54 9,8 C 10,6 C 6,7 C 67 % 1020,7 hPa 0,0 l/m 2 min 0 min 105 W/m 12,9 km/h (3 Bft) 97,87 %
04.04.2021 18:56 9,8 C 10,0 C 6,7 C 67 % 1020,7 hPa 0,0 l/m 0 min 0 min 84 W/m 6,4 km/h (2 Bft) 97,87 %
04.04.2021 18:58 9,7 C 10,0 C 6,7 C 67 % 1020,7 hPa 0,0 l/m 0 min 0 min 78 W/m 6,4 km/h (2 Bft) 97,83 %
04.04.2021 19:00 9,7 C 9,4 C 6,7 C 67 % 1020,6 hPa 0,0 l/m 0 min 0 min 77 W/m 9,7 km/h (2 Bft) 97,87 %
04.04.2021 19:02 9,6 C 9,4 C 6,7 C 67 % 1020,6 hPa 0,0 l/m 0 min 0 min 76 W/m 6,4 km/h (2 Bft) 91,49 %
04.04.2021 19:04 9,6 C 9,4 C 6,7 C 68 % 1020,6 hPa 0,0 l/m 0 min 0 min 74 W/m 12,9 km/h (3 Bft) 95,74 %
04.04.2021 19:06 9,5 C 9,4 C 6,7 C 67 % 1020,5 hPa 0,0 l/m 0 min 0 min 71 W/m 6,4 km/h (2 Bft) 95,74 %
04.04.2021 19:08 9,5 C 9,4 C 6,7 C 67 % 1020,4 hPa 0,0 l/m 0 min 0 min 68 W/m 6,4 km/h (2 Bft) 97,87 %
04.04.2021 19:10 9,4 C 8,9 C 6,1 C 67 % 1020,4 hPa 0,0 l/m 0 min 0 min 65 W/m 9,7 km/h (2 Bft) 97,83 %
04.04.2021 19:12 9,4 C 8,9 C 6,1 C 68 % 1020,4 hPa 0,0 l/m 0 min 0 min 62 W/m 3,2 km/h (1 Bft) 97,87 %
04.04.2021 19:14 9,4 C 8,9 C 6,1 C 68 % 1020,4 hPa 0,0 l/m 0 min 0 min 58 W/m 6,4 km/h (2 Bft) 97,87 %
04.04.2021 19:16 9,3 C 8,9 C 6,1 C 68 % 1020,4 hPa 0,0 l/m 0 min 0 min 54 W/m 6,4 km/h (2 Bft) 95,74 %
04.04.2021 19:18 9,3 C 8,9 C 6,1 C 68 % 1020,3 hPa 0,0 l/m 0 min 0 min 52 W/m 6,4 km/h (2 Bft) 95,74 %
04.04.2021 19:20 9,2 C 8,3 C 6,1 C 69 % 1020,3 hPa 0,0 l/m 0 min 0 min 50 W/m 6,4 km/h (2 Bft) 95,74 %
04.04.2021 19:22 9,1 C 8,3 C 6,1 C 69 % 1020,3 hPa 0,0 l/m 0 min 0 min 47 W/m 3,2 km/h (1 Bft) 97,83 %
04.04.2021 19:24 9,1 C 8,3 C 6,1 C 69 % 1020,2 hPa 0,0 l/m 0 min 0 min 45 W/m 3,2 km/h (1 Bft) 97,87 %
04.04.2021 19:26 9,0 C 8,3 C 6,1 C 69 % 1020,3 hPa 0,0 l/m 0 min 0 min 42 W/m 6,4 km/h (2 Bft) 95,74 %
04.04.2021 19:28 9,0 C 8,3 C 6,1 C 69 % 1020,2 hPa 0,0 l/m 0 min 0 min 40 W/m 3,2 km/h (1 Bft) 95,74 %
04.04.2021 19:30 9,0 C 8,3 C 5,6 C 69 % 1020,0 hPa 0,0 l/m 0 min 0 min 39 W/m 3,2 km/h (1 Bft) 97,87 %
04.04.2021 19:32 9,0 C 8,3 C 5,6 C 69 % 1020,0 hPa 0,0 l/m 0 min 0 min 39 W/m 3,2 km/h (1 Bft) 96,23 %
04.04.2021 19:34 8,9 C 8,3 C 5,6 C 69 % 1019,9 hPa 0,0 l/m 0 min 0 min 37 W/m 3,2 km/h (1 Bft) 100,00 %
04.04.2021 19:36 8,9 C 8,3 C 5,6 C 69 % 1019,8 hPa 0,0 l/m 0 min 0 min 36 W/m 3,2 km/h (1 Bft) 100,00 %
04.04.2021 19:38 8,9 C 8,3 C 5,6 C 69 % 1019,7 hPa 0,0 l/m 0 min 0 min 34 W/m 3,2 km/h (1 Bft) 100,00 %
04.04.2021 19:40 8,9 C 7,8 C 5,6 C 69 % 1019,7 hPa 0,0 l/m 0 min 0 min 31 W/m 3,2 km/h (1 Bft) 100,00 %
04.04.2021 19:42 8,8 C 7,8 C 5,6 C 70 % 1019,6 hPa 0,0 l/m 0 min 0 min 29 W/m 3,2 km/h (1 Bft) 97,87 %
04.04.2021 19:44 8,8 C 7,8 C 5,6 C 70 % 1019,6 hPa 0,0 l/m 0 min 0 min 26 W/m 3,2 km/h (1 Bft) 100,00 %
04.04.2021 19:46 8,7 C 7,8 C 5,6 C 70 % 1019,6 hPa 0,0 l/m 0 min 0 min 24 W/m 6,4 km/h (2 Bft) 100,00 %
04.04.2021 19:48 8,7 C 7,8 C 5,6 C 70 % 1019,7 hPa 0,0 l/m 0 min 0 min 21 W/m 3,2 km/h (1 Bft) 97,87 %
04.04.2021 19:50 8,6 C 7,8 C 5,6 C 70 % 1019,7 hPa 0,0 l/m 0 min 0 min 19 W/m 0,0 km/h (0 Bft) 100,00 %
04.04.2021 19:52 8,6 C 7,8 C 5,6 C 70 % 1019,8 hPa 0,0 l/m 0 min 0 min 18 W/m 6,4 km/h (2 Bft) 100,00 %
04.04.2021 19:54 8,6 C 7,2 C 5,0 C 71 % 1019,8 hPa 0,0 l/m 0 min 0 min 16 W/m 3,2 km/h (1 Bft) 100,00 %
04.04.2021 19:56 8,6 C 7,2 C 5,0 C 71 % 1019,8 hPa 0,0 l/m 0 min 0 min 14 W/m 3,2 km/h (1 Bft) 100,00 %
04.04.2021 19:58 8,5 C 7,2 C 5,0 C 71 % 1019,8 hPa 0,0 l/m 0 min 0 min 13 W/m 3,2 km/h (1 Bft) 100,00 %
04.04.2021 20:00 8,5 C 7,2 C 5,0 C 71 % 1019,7 hPa 0,0 l/m 0 min 0 min 12 W/m 3,2 km/h (1 Bft) 100,00 %
04.04.2021 20:02 8,5 C 7,2 C 5,0 C 72 % 1019,6 hPa 0,0 l/m 0 min 0 min 11 W/m 3,2 km/h (1 Bft) 97,92 %
04.04.2021 20:04 8,4 C 7,2 C 5,0 C 72 % 1019,6 hPa 0,0 l/m 0 min 0 min 10 W/m 0,0 km/h (0 Bft) 100,00 %
04.04.2021 20:06 8,4 C 7,2 C 5,0 C 72 % 1019,6 hPa 0,0 l/m 0 min 0 min 9 W/m 0,0 km/h (0 Bft) 100,00 %
04.04.2021 20:08 8,3 C 7,2 C 5,0 C 72 % 1019,5 hPa 0,0 l/m 0 min 0 min 7 W/m 0,0 km/h (0 Bft) 100,00 %
04.04.2021 20:10 8,3 C 6,7 C 4,5 C 72 % 1019,6 hPa 0,0 l/m 0 min 0 min 6 W/m 0,0 km/h (0 Bft) 100,00 %
04.04.2021 20:12 8,2 C 6,7 C 4,5 C 72 % 1019,5 hPa 0,0 l/m 0 min 0 min 4 W/m 0,0 km/h (0 Bft) 100,00 %
04.04.2021 20:14 8,2 C 6,7 C 4,5 C 73 % 1019,6 hPa 0,0 l/m 0 min 0 min 0 W/m 0,0 km/h (0 Bft) 100,00 %
04.04.2021 20:16 8,1 C 6,7 C 4,5 C 73 % 1019,6 hPa 0,0 l/m 0 min 0 min 0 W/m 0,0 km/h (0 Bft) 100,00 %
04.04.2021 20:18 8,1 C 6,7 C 4,5 C 73 % 1019,5 hPa 0,0 l/m 0 min 0 min 0 W/m 0,0 km/h (0 Bft) 100,00 %
04.04.2021 20:20 8,1 C 6,1 C 3,9 C 73 % 1019,6 hPa 0,0 l/m 0 min 0 min 0 W/m 0,0 km/h (0 Bft) 100,00 %
04.04.2021 20:22 8,0 C 6,1 C 3,9 C 73 % 1019,5 hPa 0,0 l/m 0 min 0 min 0 W/m 0,0 km/h (0 Bft) 100,00 %
04.04.2021 20:24 8,0 C 6,1 C 3,9 C 74 % 1019,4 hPa 0,0 l/m 0 min 0 min 0 W/m 0,0 km/h (0 Bft) 100,00 %
04.04.2021 20:26 7,9 C 6,1 C 3,9 C 74 % 1019,4 hPa 0,0 l/m 0 min 0 min 0 W/m 0,0 km/h (0 Bft) 100,00 %
04.04.2021 20:28 7,9 C 6,1 C 3,9 C 74 % 1019,4 hPa 0,0 l/m 0 min 0 min 0 W/m 0,0 km/h (0 Bft) 100,00 %
04.04.2021 20:30 7,8 C 6,1 C 3,9 C 74 % 1019,5 hPa 0,0 l/m 0 min 0 min 0 W/m 0,0 km/h (0 Bft) 100,00 %
04.04.2021 20:32 7,8 C 6,1 C 3,9 C 74 % 1019,4 hPa 0,0 l/m 0 min 0 min 0 W/m 3,2 km/h (1 Bft) 100,00 %
04.04.2021 20:34 7,7 C 6,1 C 3,9 C 74 % 1019,4 hPa 0,0 l/m 0 min 0 min 0 W/m 3,2 km/h (1 Bft) 100,00 %
04.04.2021 20:36 7,6 C 6,1 C 3,9 C 74 % 1019,3 hPa 0,0 l/m 0 min 0 min 0 W/m 0,0 km/h (0 Bft) 100,00 %
04.04.2021 20:38 7,5 C 6,1 C 3,9 C 74 % 1019,4 hPa 0,0 l/m 0 min 0 min 0 W/m 0,0 km/h (0 Bft) 100,00 %
04.04.2021 20:40 7,5 C 6,1 C 3,9 C 74 % 1019,5 hPa 0,0 l/m 0 min 0 min 0 W/m 0,0 km/h (0 Bft) 100,00 %
04.04.2021 20:42 7,5 C 6,1 C 3,9 C 75 % 1019,5 hPa 0,0 l/m 0 min 0 min 0 W/m 3,2 km/h (1 Bft) 100,00 %
04.04.2021 20:44 7,4 C 6,1 C 3,4 C 75 % 1019,4 hPa 0,0 l/m 0 min 0 min 0 W/m 0,0 km/h (0 Bft) 100,00 %
04.04.2021 20:46 7,4 C 5,6 C 3,4 C 75 % 1019,5 hPa 0,0 l/m 0 min 0 min 0 W/m 3,2 km/h (1 Bft) 100,00 %
04.04.2021 20:48 7,3 C 5,6 C 3,4 C 75 % 1019,5 hPa 0,0 l/m 0 min 0 min 0 W/m 3,2 km/h (1 Bft) 97,87 %
04.04.2021 20:50 7,3 C 5,6 C 3,4 C 75 % 1019,4 hPa 0,0 l/m 0 min 0 min 0 W/m 0,0 km/h (0 Bft) 100,00 %
04.04.2021 20:52 7,3 C 5,6 C 3,4 C 75 % 1019,4 hPa 0,0 l/m 0 min 0 min 0 W/m 3,2 km/h (1 Bft) 100,00 %
04.04.2021 20:54 7,2 C 5,6 C 3,4 C 75 % 1019,5 hPa 0,0 l/m 0 min 0 min 0 W/m 3,2 km/h (1 Bft) 100,00 %
04.04.2021 20:56 7,2 C 5,6 C 3,4 C 75 % 1019,4 hPa 0,0 l/m 0 min 0 min 0 W/m 0,0 km/h (0 Bft) 100,00 %
04.04.2021 20:58 7,1 C 5,6 C 3,4 C 76 % 1019,3 hPa 0,0 l/m 0 min 0 min 0 W/m 0,0 km/h (0 Bft) 93,62 %
04.04.2021 21:00 7,1 C 5,6 C 3,4 C 76 % 1019,3 hPa 0,0 l/m 0 min 0 min 0 W/m 0,0 km/h (0 Bft) 91,49 %
04.04.2021 21:02 7,0 C 5,6 C 3,4 C 76 % 1019,2 hPa 0,0 l/m 0 min 0 min 0 W/m 0,0 km/h (0 Bft) 95,74 %
04.04.2021 21:04 7,0 C 5,6 C 3,4 C 76 % 1019,2 hPa 0,0 l/m 0 min 0 min 0 W/m 0,0 km/h (0 Bft) 93,48 %
04.04.2021 21:06 7,0 C 5,6 C 3,4 C 76 % 1019,1 hPa 0,0 l/m 0 min 0 min 0 W/m 0,0 km/h (0 Bft) 93,55 %
04.04.2021 21:08 6,9 C 5,6 C 3,4 C 76 % 1019,1 hPa 0,0 l/m 0 min 0 min 0 W/m 0,0 km/h (0 Bft) 96,08 %
04.04.2021 21:10 6,9 C 5,6 C 3,4 C 76 % 1019,1 hPa 0,0 l/m 0 min 0 min 0 W/m 0,0 km/h (0 Bft) 95,74 %
04.04.2021 21:12 6,9 C 5,0 C 3,4 C 77 % 1019,0 hPa 0,0 l/m 0 min 0 min 0 W/m 0,0 km/h (0 Bft) 95,74 %
04.04.2021 21:14 6,8 C 5,0 C 2,8 C 77 % 1019,0 hPa 0,0 l/m 0 min 0 min 0 W/m 0,0 km/h (0 Bft) 95,74 %
04.04.2021 21:16 6,8 C 5,0 C 2,8 C 77 % 1018,9 hPa 0,0 l/m 0 min 0 min 0 W/m 0,0 km/h (0 Bft) 95,74 %
04.04.2021 21:18 6,7 C 5,0 C 2,8 C 77 % 1018,9 hPa 0,0 l/m 0 min 0 min 0 W/m 0,0 km/h (0 Bft) 95,74 %
04.04.2021 21:20 6,6 C 5,6 C 3,4 C 77 % 1018,8 hPa 0,0 l/m 0 min 0 min 0 W/m 3,2 km/h (1 Bft) 95,65 %
04.04.2021 21:22 6,6 C 5,0 C 2,8 C 77 % 1018,8 hPa 0,0 l/m 0 min 0 min 0 W/m 0,0 km/h (0 Bft) 93,62 %
04.04.2021 21:24 6,5 C 5,0 C 2,8 C 78 % 1018,7 hPa 0,0 l/m 0 min 0 min 0 W/m 3,2 km/h (1 Bft) 94,34 %
04.04.2021 21:26 6,5 C 5,0 C 3,4 C 78 % 1018,5 hPa 0,0 l/m 0 min 0 min 0 W/m 6,4 km/h (2 Bft) 95,12 %
04.04.2021 21:28 6,5 C 5,0 C 3,4 C 78 % 1018,5 hPa 0,0 l/m 0 min 0 min 0 W/m 3,2 km/h (1 Bft) 95,74 %
04.04.2021 21:30 6,4 C 5,0 C 3,4 C 78 % 1018,5 hPa 0,0 l/m 0 min 0 min 0 W/m 0,0 km/h (0 Bft) 97,87 %
04.04.2021 21:32 6,4 C 5,0 C 3,4 C 78 % 1018,4 hPa 0,0 l/m 0 min 0 min 0 W/m 0,0 km/h (0 Bft) 95,65 %
04.04.2021 21:34 6,4 C 5,0 C 3,4 C 78 % 1018,5 hPa 0,0 l/m 0 min 0 min 0 W/m 3,2 km/h (1 Bft) 100,00 %
04.04.2021 21:36 6,4 C 5,0 C 2,8 C 78 % 1018,5 hPa 0,0 l/m 0 min 0 min 0 W/m 0,0 km/h (0 Bft) 97,87 %
04.04.2021 21:38 6,4 C 5,0 C 2,8 C 78 % 1018,6 hPa 0,0 l/m 0 min 0 min 0 W/m 3,2 km/h (1 Bft) 97,87 %
04.04.2021 21:40 6,3 C 5,0 C 2,8 C 78 % 1018,5 hPa 0,0 l/m 0 min 0 min 0 W/m 3,2 km/h (1 Bft) 97,87 %
04.04.2021 21:42 6,3 C 5,0 C 2,8 C 79 % 1018,6 hPa 0,0 l/m 0 min 0 min 0 W/m 3,2 km/h (1 Bft) 95,74 %
04.04.2021 21:44 6,2 C 5,0 C 2,8 C 79 % 1018,6 hPa 0,0 l/m 0 min 0 min 0 W/m 3,2 km/h (1 Bft) 95,65 %
04.04.2021 21:46 6,1 C 5,0 C 2,8 C 79 % 1018,6 hPa 0,0 l/m 0 min 0 min 0 W/m 0,0 km/h (0 Bft) 95,74 %
04.04.2021 21:48 6,1 C 5,0 C 2,8 C 79 % 1018,6 hPa 0,0 l/m 0 min 0 min 0 W/m 3,2 km/h (1 Bft) 97,87 %
04.04.2021 21:50 6,1 C 5,0 C 2,8 C 79 % 1018,6 hPa 0,0 l/m 0 min 0 min 0 W/m 0,0 km/h (0 Bft) 95,74 %
04.04.2021 21:52 6,1 C 5,0 C 2,8 C 79 % 1018,6 hPa 0,0 l/m 0 min 0 min 0 W/m 0,0 km/h (0 Bft) 97,87 %
04.04.2021 21:54 6,1 C 5,0 C 2,8 C 79 % 1018,6 hPa 0,0 l/m 0 min 0 min 0 W/m 0,0 km/h (0 Bft) 97,87 %
04.04.2021 21:56 6,0 C 4,4 C 2,8 C 79 % 1018,6 hPa 0,0 l/m 0 min 0 min 0 W/m 0,0 km/h (0 Bft) 97,83 %
04.04.2021 21:58 6,0 C 4,4 C 2,8 C 80 % 1018,5 hPa 0,0 l/m 0 min 0 min 0 W/m 3,2 km/h (1 Bft) 97,87 %
04.04.2021 22:00 6,0 C 4,4 C 2,8 C 80 % 1018,5 hPa 0,0 l/m 0 min 0 min 0 W/m 3,2 km/h (1 Bft) 97,87 %
04.04.2021 22:02 5,9 C 4,4 C 2,8 C 80 % 1018,5 hPa 0,0 l/m 0 min 0 min 0 W/m 0,0 km/h (0 Bft) 98,15 %
04.04.2021 22:10 5,9 C 4,4 C 2,3 C 80 % 1018,3 hPa 0,0 l/m 0 min 0 min 0 W/m 0,0 km/h (0 Bft) 96,44 %
04.04.2021 22:12 5,8 C 4,4 C 2,3 C 80 % 1018,2 hPa 0,0 l/m 0 min 0 min 0 W/m 0,0 km/h (0 Bft) 96,83 %
04.04.2021 22:14 5,8 C 4,4 C 2,8 C 80 % 1018,2 hPa 0,0 l/m 0 min 0 min 0 W/m 3,2 km/h (1 Bft) 97,87 %
04.04.2021 22:16 5,8 C 4,4 C 2,8 C 80 % 1018,1 hPa 0,0 l/m 0 min 0 min 0 W/m 0,0 km/h (0 Bft) 97,87 %
04.04.2021 22:18 5,8 C 4,4 C 2,8 C 81 % 1018,0 hPa 0,0 l/m 0 min 0 min 0 W/m 3,2 km/h (1 Bft) 97,87 %
04.04.2021 22:20 5,7 C 4,4 C 2,8 C 81 % 1018,1 hPa 0,0 l/m 0 min 0 min 0 W/m 3,2 km/h (1 Bft) 93,48 %
04.04.2021 22:22 5,7 C 4,4 C 2,8 C 81 % 1018,0 hPa 0,0 l/m 0 min 0 min 0 W/m 0,0 km/h (0 Bft) 97,87 %
04.04.2021 22:24 5,7 C 5,0 C 2,8 C 81 % 1017,9 hPa 0,0 l/m 0 min 0 min 0 W/m 3,2 km/h (1 Bft) 97,87 %
04.04.2021 22:26 5,7 C 5,0 C 2,8 C 81 % 1017,9 hPa 0,0 l/m 0 min 0 min 0 W/m 3,2 km/h (1 Bft) 97,87 %
04.04.2021 22:28 5,7 C 5,0 C 2,8 C 81 % 1017,8 hPa 0,0 l/m 0 min 0 min 0 W/m 3,2 km/h (1 Bft) 97,87 %
04.04.2021 22:30 5,7 C 5,0 C 2,8 C 81 % 1017,8 hPa 0,0 l/m 0 min 0 min 0 W/m 3,2 km/h (1 Bft) 97,87 %
04.04.2021 22:32 5,6 C 5,0 C 2,8 C 81 % 1017,7 hPa 0,0 l/m 0 min 0 min 0 W/m 3,2 km/h (1 Bft) 97,83 %
04.04.2021 22:34 5,6 C 4,4 C 2,8 C 81 % 1017,7 hPa 0,0 l/m 0 min 0 min 0 W/m 3,2 km/h (1 Bft) 97,87 %
04.04.2021 22:36 5,6 C 4,4 C 2,8 C 82 % 1017,7 hPa 0,0 l/m 0 min 0 min 0 W/m 6,4 km/h (2 Bft) 95,74 %
04.04.2021 22:38 5,6 C 4,4 C 2,8 C 82 % 1017,6 hPa 0,0 l/m 0 min 0 min 0 W/m 3,2 km/h (1 Bft) 93,62 %
04.04.2021 22:40 5,6 C 4,4 C 2,8 C 82 % 1017,6 hPa 0,0 l/m 0 min 0 min 0 W/m 3,2 km/h (1 Bft) 97,87 %
04.04.2021 22:42 5,6 C 4,4 C 2,8 C 82 % 1017,6 hPa 0,0 l/m 0 min 0 min 0 W/m 3,2 km/h (1 Bft) 97,87 %
04.04.2021 22:44 5,6 C 4,4 C 2,8 C 82 % 1017,6 hPa 0,0 l/m 0 min 0 min 0 W/m 3,2 km/h (1 Bft) 97,83 %
04.04.2021 22:46 5,5 C 4,4 C 2,8 C 82 % 1017,6 hPa 0,0 l/m 0 min 0 min 0 W/m 3,2 km/h (1 Bft) 97,87 %
04.04.2021 22:48 5,5 C 4,4 C 2,8 C 82 % 1017,6 hPa 0,0 l/m 0 min 0 min 0 W/m 3,2 km/h (1 Bft) 95,74 %
04.04.2021 22:50 5,5 C 4,4 C 2,8 C 82 % 1017,6 hPa 0,0 l/m 0 min 0 min 0 W/m 3,2 km/h (1 Bft) 93,62 %
04.04.2021 22:52 5,5 C 4,4 C 2,8 C 82 % 1017,5 hPa 0,0 l/m 0 min 0 min 0 W/m 0,0 km/h (0 Bft) 95,74 %
04.04.2021 22:54 5,5 C 4,4 C 2,8 C 82 % 1017,5 hPa 0,0 l/m 0 min 0 min 0 W/m 0,0 km/h (0 Bft) 95,65 %
04.04.2021 22:56 5,5 C 4,4 C 2,8 C 82 % 1017,5 hPa 0,0 l/m 0 min 0 min 0 W/m 3,2 km/h (1 Bft) 95,74 %
04.04.2021 22:58 5,5 C 4,4 C 2,8 C 82 % 1017,4 hPa 0,0 l/m 0 min 0 min 0 W/m 3,2 km/h (1 Bft) 93,62 %
04.04.2021 23:00 5,4 C 4,4 C 2,8 C 82 % 1017,4 hPa 0,0 l/m 0 min 0 min 0 W/m 3,2 km/h (1 Bft) 95,74 %
04.04.2021 23:02 5,4 C 4,4 C 2,8 C 82 % 1017,4 hPa 0,0 l/m 0 min 0 min 0 W/m 3,2 km/h (1 Bft) 97,14 %
04.04.2021 23:04 5,4 C 4,4 C 2,8 C 82 % 1017,3 hPa 0,0 l/m 0 min 0 min 0 W/m 3,2 km/h (1 Bft) 95,74 %
04.04.2021 23:06 5,4 C 4,4 C 2,8 C 82 % 1017,3 hPa 0,0 l/m 0 min 0 min 0 W/m 3,2 km/h (1 Bft) 94,83 %
04.04.2021 23:08 5,4 C 4,4 C 2,8 C 82 % 1017,2 hPa 0,0 l/m 0 min 0 min 0 W/m 3,2 km/h (1 Bft) 94,44 %
04.04.2021 23:10 5,3 C 4,4 C 2,8 C 82 % 1017,1 hPa 0,0 l/m 0 min 0 min 0 W/m 3,2 km/h (1 Bft) 95,65 %
04.04.2021 23:12 5,3 C 4,4 C 2,8 C 82 % 1016,9 hPa 0,0 l/m 0 min 0 min 0 W/m 3,2 km/h (1 Bft) 95,74 %
04.04.2021 23:14 5,3 C 4,4 C 2,8 C 83 % 1016,9 hPa 0,0 l/m 0 min 0 min 0 W/m 6,4 km/h (2 Bft) 95,74 %
04.04.2021 23:16 5,3 C 4,4 C 2,3 C 83 % 1017,0 hPa 0,0 l/m 0 min 0 min 0 W/m 0,0 km/h (0 Bft) 95,74 %
04.04.2021 23:18 5,3 C 4,4 C 2,8 C 83 % 1017,1 hPa 0,0 l/m 0 min 0 min 0 W/m 3,2 km/h (1 Bft) 95,74 %
04.04.2021 23:20 5,3 C 4,4 C 2,8 C 83 % 1016,9 hPa 0,0 l/m 0 min 0 min 0 W/m 3,2 km/h (1 Bft) 96,43 %
04.04.2021 23:22 5,3 C 4,4 C 2,3 C 83 % 1016,8 hPa 0,0 l/m 0 min 0 min 0 W/m 3,2 km/h (1 Bft) 97,92 %
04.04.2021 23:24 5,3 C 4,4 C 2,3 C 83 % 1016,8 hPa 0,0 l/m 0 min 0 min 0 W/m 3,2 km/h (1 Bft) 97,83 %
04.04.2021 23:26 5,3 C 4,4 C 2,3 C 83 % 1016,9 hPa 0,0 l/m 0 min 0 min 0 W/m 6,4 km/h (2 Bft) 97,87 %
04.04.2021 23:28 5,2 C 4,4 C 2,3 C 83 % 1016,8 hPa 0,0 l/m 0 min 0 min 0 W/m 9,7 km/h (2 Bft) 47,62 %
04.04.2021 23:30 5,2 C 4,4 C 2,8 C 83 % 1016,7 hPa 0,0 l/m 0 min 0 min 0 W/m 3,2 km/h (1 Bft) 97,87 %
04.04.2021 23:32 5,2 C 4,4 C 2,3 C 83 % 1016,7 hPa 0,0 l/m 0 min 0 min 0 W/m 9,7 km/h (2 Bft) 97,92 %
04.04.2021 23:34 5,1 C 4,4 C 2,3 C 83 % 1016,7 hPa 0,0 l/m 0 min 0 min 0 W/m 6,4 km/h (2 Bft) 97,83 %
04.04.2021 23:36 5,1 C 4,4 C 2,3 C 83 % 1016,7 hPa 0,0 l/m 0 min 0 min 0 W/m 3,2 km/h (1 Bft) 95,74 %
04.04.2021 23:38 5,1 C 4,4 C 2,3 C 83 % 1016,8 hPa 0,0 l/m 0 min 0 min 0 W/m 3,2 km/h (1 Bft) 97,87 %
04.04.2021 23:40 5,1 C 4,4 C 2,3 C 83 % 1016,8 hPa 0,0 l/m 0 min 0 min 0 W/m 6,4 km/h (2 Bft) 97,87 %
04.04.2021 23:42 5,1 C 4,4 C 2,3 C 83 % 1016,7 hPa 0,0 l/m 0 min 0 min 0 W/m 3,2 km/h (1 Bft) 95,74 %
04.04.2021 23:44 5,1 C 3,9 C 2,3 C 83 % 1016,6 hPa 0,0 l/m 0 min 0 min 0 W/m 3,2 km/h (1 Bft) 97,87 %
04.04.2021 23:46 5,0 C 3,9 C 2,3 C 83 % 1016,6 hPa 0,0 l/m 0 min 0 min 0 W/m 6,4 km/h (2 Bft) 97,83 %
04.04.2021 23:48 5,0 C 3,9 C 2,3 C 83 % 1016,5 hPa 0,0 l/m 0 min 0 min 0 W/m 3,2 km/h (1 Bft) 100,00 %
04.04.2021 23:50 5,0 C 3,9 C 2,3 C 83 % 1016,5 hPa 0,0 l/m 0 min 0 min 0 W/m 3,2 km/h (1 Bft) 100,00 %
04.04.2021 23:52 5,0 C 3,9 C 2,3 C 84 % 1016,4 hPa 0,0 l/m 0 min 0 min 0 W/m 3,2 km/h (1 Bft) 95,74 %
04.04.2021 23:54 5,0 C 3,9 C 2,3 C 84 % 1016,4 hPa 0,0 l/m 0 min 0 min 0 W/m 3,2 km/h (1 Bft) 100,00 %
04.04.2021 23:56 5,0 C 3,9 C 2,3 C 84 % 1016,4 hPa 0,0 l/m 0 min 0 min 0 W/m 3,2 km/h (1 Bft) 97,87 %
04.04.2021 23:58 4,9 C 3,9 C 2,3 C 84 % 1016,4 hPa 0,0 l/m 0 min 0 min 0 W/m 3,2 km/h (1 Bft) 100,00 %
_ Min-Zeit 03:24 03:10 02:58 17:48 23:52 - - - - 01:14 00:02
Minimum _ 2,8 C 1,7 C 0,0 C 65 % 1016,4 hPa - - - - 0,0 km/h (0 Bft) 11,11 %
_ Max-Zeit 17:44 17:40 17:42 03:40 00:22 00:00 16:18 00:00 17:32 11:48 01:14
Maximum _ 10,6 C 16,1 C 8,4 C 87 % 1027,9 hPa 0,0 l/m 2 min 0 min 483 W/m 22,5 km/h
N (4 Bft)
100,00 %
Durchschnitt _ 6,1 C 6,0 C 3,6 C 78 % 1024,2 hPa #0,0 l/m #2:22 h #0 min. 157 W/m 5,4 km/h (1 Bft) 96,80 %
© 2021 W. Hausmann